<?xml version="1.0" encoding="UTF-8" standalone="no" ?>
<gpx xmlns="http://www.topografix.com/GPX/1/1" creator="MapSource 6.16.3" version="1.1" xmlns:xsi="http://www.w3.org/2001/XMLSchema-instance" xsi:schemaLocation="http://www.topografix.com/GPX/1/1 http://www.topografix.com/GPX/1/1/gpx.xsd">

  <metadata>
    <link href="http://www.garmin.com">
      <text>Garmin International</text>
    </link>
    <time>2016-09-17T07:35:58Z</time>
    <bounds maxlat="44.362556934356689" maxlon="11.158830458298326" minlat="44.337306870147586" minlon="11.1281418800354"/>
  </metadata>

  <trk>
    <name>ACTIVE LOG</name>
    <trkseg>
      <trkpt lat="44.337656898424029" lon="11.14966300316155">
        <ele>267.38389999999998</ele>
        <time>2005-11-05T07:46:10Z</time>
      </trkpt>
      <trkpt lat="44.337573414668441" lon="11.148997228592634">
        <ele>267.86450000000002</ele>
        <time>2005-11-05T07:46:22Z</time>
      </trkpt>
      <trkpt lat="44.337416589260101" lon="11.148548293858767">
        <ele>269.78710000000001</ele>
        <time>2005-11-05T07:46:33Z</time>
      </trkpt>
      <trkpt lat="44.337306870147586" lon="11.14815023727715">
        <ele>270.7484</ele>
        <time>2005-11-05T07:46:43Z</time>
      </trkpt>
      <trkpt lat="44.337359592318535" lon="11.147577837109566">
        <ele>271.7097</ele>
        <time>2005-11-05T07:46:57Z</time>
      </trkpt>
      <trkpt lat="44.337502755224705" lon="11.147034857422113">
        <ele>271.22910000000002</ele>
        <time>2005-11-05T07:47:11Z</time>
      </trkpt>
      <trkpt lat="44.337881868705153" lon="11.146210916340351">
        <ele>272.67110000000002</ele>
        <time>2005-11-05T07:47:42Z</time>
      </trkpt>
      <trkpt lat="44.33796769939363" lon="11.145566934719682">
        <ele>273.15190000000001</ele>
        <time>2005-11-05T07:47:56Z</time>
      </trkpt>
      <trkpt lat="44.338101977482438" lon="11.145044406875968">
        <ele>274.59379999999999</ele>
        <time>2005-11-05T07:48:10Z</time>
      </trkpt>
      <trkpt lat="44.338451754301786" lon="11.144730420783162">
        <ele>277.95830000000001</ele>
        <time>2005-11-05T07:48:26Z</time>
      </trkpt>
      <trkpt lat="44.338701954111457" lon="11.144520873203874">
        <ele>279.40030000000002</ele>
        <time>2005-11-05T07:48:38Z</time>
      </trkpt>
      <trkpt lat="44.338884511962533" lon="11.144134886562824">
        <ele>281.80360000000002</ele>
        <time>2005-11-05T07:48:52Z</time>
      </trkpt>
      <trkpt lat="44.339065058156848" lon="11.143687795847654">
        <ele>284.68759999999997</ele>
        <time>2005-11-05T07:49:08Z</time>
      </trkpt>
      <trkpt lat="44.339256417006254" lon="11.143247578293085">
        <ele>287.57139999999998</ele>
        <time>2005-11-05T07:49:24Z</time>
      </trkpt>
      <trkpt lat="44.3394042737782" lon="11.14282906986773">
        <ele>290.93619999999999</ele>
        <time>2005-11-05T07:49:38Z</time>
      </trkpt>
      <trkpt lat="44.339453810825944" lon="11.142259016633034">
        <ele>292.85879999999997</ele>
        <time>2005-11-05T07:49:56Z</time>
      </trkpt>
      <trkpt lat="44.339453056454659" lon="11.141792144626379">
        <ele>295.262</ele>
        <time>2005-11-05T07:50:11Z</time>
      </trkpt>
      <trkpt lat="44.33933587744832" lon="11.141254529356956">
        <ele>298.14609999999999</ele>
        <time>2005-11-05T07:50:28Z</time>
      </trkpt>
      <trkpt lat="44.339149631559849" lon="11.140761924907565">
        <ele>300.54930000000002</ele>
        <time>2005-11-05T07:50:45Z</time>
      </trkpt>
      <trkpt lat="44.339001355692744" lon="11.140217268839478">
        <ele>302.95249999999999</ele>
        <time>2005-11-05T07:51:03Z</time>
      </trkpt>
      <trkpt lat="44.339001271873713" lon="11.139682335779071">
        <ele>304.87520000000001</ele>
        <time>2005-11-05T07:51:18Z</time>
      </trkpt>
      <trkpt lat="44.339128341525793" lon="11.139300623908639">
        <ele>306.79790000000003</ele>
        <time>2005-11-05T07:51:29Z</time>
      </trkpt>
      <trkpt lat="44.339316096156836" lon="11.138693187385798">
        <ele>303.4332</ele>
        <time>2005-11-05T07:51:38Z</time>
      </trkpt>
      <trkpt lat="44.339485829696059" lon="11.138463439419866">
        <ele>301.51060000000001</ele>
        <time>2005-11-05T07:51:42Z</time>
      </trkpt>
      <trkpt lat="44.340127715840936" lon="11.137947784736753">
        <ele>301.0299</ele>
        <time>2005-11-05T07:51:55Z</time>
      </trkpt>
      <trkpt lat="44.340293174609542" lon="11.137812919914722">
        <ele>300.06869999999998</ele>
        <time>2005-11-05T07:51:58Z</time>
      </trkpt>
      <trkpt lat="44.34098007157445" lon="11.137558612972498">
        <ele>298.14609999999999</ele>
        <time>2005-11-05T07:52:11Z</time>
      </trkpt>
      <trkpt lat="44.341029608622193" lon="11.13755576312542">
        <ele>299.10730000000001</ele>
        <time>2005-11-05T07:52:15Z</time>
      </trkpt>
      <trkpt lat="44.341086773201823" lon="11.137648215517402">
        <ele>298.14609999999999</ele>
        <time>2005-11-05T07:52:19Z</time>
      </trkpt>
      <trkpt lat="44.341220799833536" lon="11.138218520209193">
        <ele>299.10730000000001</ele>
        <time>2005-11-05T07:52:34Z</time>
      </trkpt>
      <trkpt lat="44.341156762093306" lon="11.138624288141727">
        <ele>302.95249999999999</ele>
        <time>2005-11-05T07:52:49Z</time>
      </trkpt>
      <trkpt lat="44.341072272509336" lon="11.139029301702976">
        <ele>304.87520000000001</ele>
        <time>2005-11-05T07:53:04Z</time>
      </trkpt>
      <trkpt lat="44.340978059917688" lon="11.139495754614472">
        <ele>306.31729999999999</ele>
        <time>2005-11-05T07:53:20Z</time>
      </trkpt>
      <trkpt lat="44.340915028005838" lon="11.139870677143335">
        <ele>307.7593</ele>
        <time>2005-11-05T07:53:35Z</time>
      </trkpt>
      <trkpt lat="44.340875633060932" lon="11.140238977968693">
        <ele>308.72050000000002</ele>
        <time>2005-11-05T07:53:49Z</time>
      </trkpt>
      <trkpt lat="44.340833555907011" lon="11.140531338751316">
        <ele>311.12380000000002</ele>
        <time>2005-11-05T07:54:02Z</time>
      </trkpt>
      <trkpt lat="44.340733643621206" lon="11.140843564644456">
        <ele>317.37240000000003</ele>
        <time>2005-11-05T07:54:23Z</time>
      </trkpt>
      <trkpt lat="44.340716209262609" lon="11.140977004542947">
        <ele>320.7371</ele>
        <time>2005-11-05T07:54:32Z</time>
      </trkpt>
      <trkpt lat="44.340726686641574" lon="11.14134170114994">
        <ele>323.1404</ele>
        <time>2005-11-05T07:54:52Z</time>
      </trkpt>
      <trkpt lat="44.340721825137734" lon="11.141434824094176">
        <ele>324.58229999999998</ele>
        <time>2005-11-05T07:54:57Z</time>
      </trkpt>
      <trkpt lat="44.340676898136735" lon="11.141714444383979">
        <ele>327.9468</ele>
        <time>2005-11-05T07:55:12Z</time>
      </trkpt>
      <trkpt lat="44.340788461267948" lon="11.141887027770281">
        <ele>328.9083</ele>
        <time>2005-11-05T07:55:25Z</time>
      </trkpt>
      <trkpt lat="44.340921817347407" lon="11.142021138221025">
        <ele>331.7921</ele>
        <time>2005-11-05T07:55:37Z</time>
      </trkpt>
      <trkpt lat="44.341056598350406" lon="11.142153739929199">
        <ele>333.71480000000003</ele>
        <time>2005-11-05T07:55:49Z</time>
      </trkpt>
      <trkpt lat="44.341235468164086" lon="11.142315343022346">
        <ele>337.0795</ele>
        <time>2005-11-05T07:56:05Z</time>
      </trkpt>
      <trkpt lat="44.341385839506984" lon="11.142540983855724">
        <ele>339.48270000000002</ele>
        <time>2005-11-05T07:56:20Z</time>
      </trkpt>
      <trkpt lat="44.34145356528461" lon="11.142880450934172">
        <ele>339.48270000000002</ele>
      </trkpt>
      <trkpt lat="44.34186939150095" lon="11.143914191052318">
        <ele>345.483</ele>
      </trkpt>
      <trkpt lat="44.341857908293605" lon="11.144133545458317">
        <ele>345.483</ele>
      </trkpt>
      <trkpt lat="44.341676523908973" lon="11.144352396950126">
        <ele>347.17320000000001</ele>
        <time>2005-11-05T07:58:16Z</time>
      </trkpt>
      <trkpt lat="44.341551046818495" lon="11.14443470723927">
        <ele>350.53789999999998</ele>
        <time>2005-11-05T07:58:26Z</time>
      </trkpt>
      <trkpt lat="44.341432023793459" lon="11.144624724984169">
        <ele>353.42189999999999</ele>
        <time>2005-11-05T07:58:38Z</time>
      </trkpt>
      <trkpt lat="44.341354658827186" lon="11.144945248961449">
        <ele>356.30579999999998</ele>
        <time>2005-11-05T07:58:55Z</time>
      </trkpt>
      <trkpt lat="44.341342421248555" lon="11.145081957802176">
        <ele>359.18970000000002</ele>
        <time>2005-11-05T07:59:03Z</time>
      </trkpt>
      <trkpt lat="44.341370668262243" lon="11.145237777382135">
        <ele>358.709</ele>
        <time>2005-11-05T07:59:17Z</time>
      </trkpt>
      <trkpt lat="44.3413504678756" lon="11.145502729341388">
        <ele>359.18970000000002</ele>
        <time>2005-11-05T07:59:27Z</time>
      </trkpt>
      <trkpt lat="44.341302942484617" lon="11.145819816738367">
        <ele>359.67039999999997</ele>
        <time>2005-11-05T07:59:39Z</time>
      </trkpt>
      <trkpt lat="44.341275282204151" lon="11.146343434229493">
        <ele>357.26710000000003</ele>
        <time>2005-11-05T07:59:50Z</time>
      </trkpt>
      <trkpt lat="44.341325154528022" lon="11.146972579881549">
        <ele>353.90260000000001</ele>
        <time>2005-11-05T07:59:57Z</time>
      </trkpt>
      <trkpt lat="44.341452307999134" lon="11.147807165980339">
        <ele>352.4606</ele>
        <time>2005-11-05T08:00:05Z</time>
      </trkpt>
      <trkpt lat="44.341476615518332" lon="11.148002045229077">
        <ele>352.94119999999998</ele>
        <time>2005-11-05T08:00:11Z</time>
      </trkpt>
      <trkpt lat="44.341510226950049" lon="11.148153003305197">
        <ele>352.94119999999998</ele>
        <time>2005-11-05T08:00:19Z</time>
      </trkpt>
      <trkpt lat="44.341528499498963" lon="11.148449638858438">
        <ele>356.30579999999998</ele>
        <time>2005-11-05T08:00:31Z</time>
      </trkpt>
      <trkpt lat="44.34153126552701" lon="11.148571511730552">
        <ele>357.26710000000003</ele>
        <time>2005-11-05T08:00:38Z</time>
      </trkpt>
      <trkpt lat="44.341532019898295" lon="11.148810815066099">
        <ele>360.63170000000002</ele>
        <time>2005-11-05T08:00:46Z</time>
      </trkpt>
      <trkpt lat="44.341532774269581" lon="11.148839900270104">
        <ele>360.63170000000002</ele>
        <time>2005-11-05T08:00:47Z</time>
      </trkpt>
      <trkpt lat="44.341534283012152" lon="11.148944925516844">
        <ele>362.07369999999997</ele>
        <time>2005-11-05T08:00:51Z</time>
      </trkpt>
      <trkpt lat="44.341485081240535" lon="11.149225886911154">
        <ele>363.99630000000002</ele>
        <time>2005-11-05T08:01:07Z</time>
      </trkpt>
      <trkpt lat="44.341713069006801" lon="11.149215409532189">
        <ele>365.4384</ele>
        <time>2005-11-05T08:01:19Z</time>
      </trkpt>
      <trkpt lat="44.342020265758038" lon="11.149152042344213">
        <ele>367.84160000000003</ele>
        <time>2005-11-05T08:01:36Z</time>
      </trkpt>
      <trkpt lat="44.342267028987408" lon="11.149120107293129">
        <ele>370.72559999999999</ele>
        <time>2005-11-05T08:01:52Z</time>
      </trkpt>
      <trkpt lat="44.34247137978673" lon="11.149092363193631">
        <ele>372.16750000000002</ele>
        <time>2005-11-05T08:02:04Z</time>
      </trkpt>
      <trkpt lat="44.342671791091561" lon="11.149206105619669">
        <ele>375.53210000000001</ele>
        <time>2005-11-05T08:02:17Z</time>
      </trkpt>
      <trkpt lat="44.342770194634795" lon="11.149290930479765">
        <ele>377.45479999999998</ele>
        <time>2005-11-05T08:02:25Z</time>
      </trkpt>
      <trkpt lat="44.34291067533195" lon="11.149445744231343">
        <ele>379.37740000000002</ele>
        <time>2005-11-05T08:02:38Z</time>
      </trkpt>
      <trkpt lat="44.343077056109905" lon="11.149711282923818">
        <ele>382.74209999999999</ele>
        <time>2005-11-05T08:02:52Z</time>
      </trkpt>
      <trkpt lat="44.343158947303891" lon="11.149843381717801">
        <ele>385.1454</ele>
        <time>2005-11-05T08:02:59Z</time>
      </trkpt>
      <trkpt lat="44.343320298939943" lon="11.150156864896417">
        <ele>388.99059999999997</ele>
        <time>2005-11-05T08:03:15Z</time>
      </trkpt>
      <trkpt lat="44.343383247032762" lon="11.150400945916772">
        <ele>389.95190000000002</ele>
        <time>2005-11-05T08:03:25Z</time>
      </trkpt>
      <trkpt lat="44.343412416055799" lon="11.150710741057992">
        <ele>392.83589999999998</ele>
        <time>2005-11-05T08:03:37Z</time>
      </trkpt>
      <trkpt lat="44.343433119356632" lon="11.151067893952131">
        <ele>395.71980000000002</ele>
        <time>2005-11-05T08:03:51Z</time>
      </trkpt>
      <trkpt lat="44.343365477398038" lon="11.151810865849257">
        <ele>399.56509999999997</ele>
        <time>2005-11-05T08:04:23Z</time>
      </trkpt>
      <trkpt lat="44.343460109084845" lon="11.152023850008845">
        <ele>400.04590000000002</ele>
        <time>2005-11-05T08:04:34Z</time>
      </trkpt>
      <trkpt lat="44.343693880364299" lon="11.1521315574646">
        <ele>401.96850000000001</ele>
        <time>2005-11-05T08:04:48Z</time>
      </trkpt>
      <trkpt lat="44.343985319137573" lon="11.152261141687632">
        <ele>404.37169999999998</ele>
        <time>2005-11-05T08:05:04Z</time>
      </trkpt>
      <trkpt lat="44.344374993816018" lon="11.152384104207158">
        <ele>406.29430000000002</ele>
        <time>2005-11-05T08:05:22Z</time>
      </trkpt>
      <trkpt lat="44.344709850847721" lon="11.152559202164412">
        <ele>406.7749</ele>
        <time>2005-11-05T08:05:36Z</time>
      </trkpt>
      <trkpt lat="44.345106650143862" lon="11.152613265439868">
        <ele>407.73630000000003</ele>
        <time>2005-11-05T08:05:52Z</time>
      </trkpt>
      <trkpt lat="44.34549992904067" lon="11.152567667886615">
        <ele>409.65910000000002</ele>
        <time>2005-11-05T08:06:09Z</time>
      </trkpt>
      <trkpt lat="44.345800504088402" lon="11.152504552155733">
        <ele>412.5428</ele>
        <time>2005-11-05T08:06:24Z</time>
      </trkpt>
      <trkpt lat="44.345987085253" lon="11.152670262381434">
        <ele>415.42689999999999</ele>
        <time>2005-11-05T08:06:37Z</time>
      </trkpt>
      <trkpt lat="44.345985660329461" lon="11.152971927076578">
        <ele>418.31079999999997</ele>
        <time>2005-11-05T08:06:49Z</time>
      </trkpt>
      <trkpt lat="44.345970656722784" lon="11.153073683381081">
        <ele>419.75279999999998</ele>
        <time>2005-11-05T08:06:53Z</time>
      </trkpt>
      <trkpt lat="44.345894381403923" lon="11.153482887893915">
        <ele>422.63670000000002</ele>
        <time>2005-11-05T08:07:10Z</time>
      </trkpt>
      <trkpt lat="44.345829589292407" lon="11.153736859560013">
        <ele>426.4821</ele>
        <time>2005-11-05T08:07:22Z</time>
      </trkpt>
      <trkpt lat="44.345698244869709" lon="11.154011785984039">
        <ele>429.36599999999999</ele>
        <time>2005-11-05T08:07:37Z</time>
      </trkpt>
      <trkpt lat="44.34566798619926" lon="11.154033076018095">
        <ele>430.32729999999998</ele>
        <time>2005-11-05T08:07:39Z</time>
      </trkpt>
      <trkpt lat="44.345424911007285" lon="11.154270535334945">
        <ele>432.73070000000001</ele>
        <time>2005-11-05T08:07:58Z</time>
      </trkpt>
      <trkpt lat="44.345353664830327" lon="11.154546299949288">
        <ele>435.13389999999998</ele>
        <time>2005-11-05T08:08:12Z</time>
      </trkpt>
      <trkpt lat="44.345443183556199" lon="11.154833799228072">
        <ele>438.49849999999998</ele>
        <time>2005-11-05T08:08:27Z</time>
      </trkpt>
      <trkpt lat="44.345553321763873" lon="11.155132278800011">
        <ele>441.86320000000001</ele>
        <time>2005-11-05T08:08:42Z</time>
      </trkpt>
      <trkpt lat="44.345477465540171" lon="11.155504854395986">
        <ele>443.78570000000002</ele>
        <time>2005-11-05T08:08:58Z</time>
      </trkpt>
      <trkpt lat="44.345383504405618" lon="11.155775506049395">
        <ele>445.22770000000003</ele>
        <time>2005-11-05T08:09:10Z</time>
      </trkpt>
      <trkpt lat="44.345114529132843" lon="11.15589695982635">
        <ele>446.66969999999998</ele>
        <time>2005-11-05T08:09:25Z</time>
      </trkpt>
      <trkpt lat="44.344914285466075" lon="11.155941970646381">
        <ele>449.07299999999998</ele>
        <time>2005-11-05T08:09:36Z</time>
      </trkpt>
      <trkpt lat="44.344747988507152" lon="11.156167360022664">
        <ele>450.99560000000002</ele>
        <time>2005-11-05T08:09:50Z</time>
      </trkpt>
      <trkpt lat="44.344631480053067" lon="11.156492661684752">
        <ele>453.87959999999998</ele>
        <time>2005-11-05T08:10:05Z</time>
      </trkpt>
      <trkpt lat="44.344572303816676" lon="11.156843025237322">
        <ele>455.80220000000003</ele>
        <time>2005-11-05T08:10:20Z</time>
      </trkpt>
      <trkpt lat="44.34458713978529" lon="11.157259522005916">
        <ele>456.76350000000002</ele>
        <time>2005-11-05T08:10:35Z</time>
      </trkpt>
      <trkpt lat="44.344568280503154" lon="11.157676856964827">
        <ele>459.1669</ele>
        <time>2005-11-05T08:10:51Z</time>
      </trkpt>
      <trkpt lat="44.344431068748236" lon="11.158093269914389">
        <ele>461.08949999999999</ele>
        <time>2005-11-05T08:11:08Z</time>
      </trkpt>
      <trkpt lat="44.344296371564269" lon="11.158361909911036">
        <ele>463.01209999999998</ele>
        <time>2005-11-05T08:11:20Z</time>
      </trkpt>
      <trkpt lat="44.344142898917198" lon="11.158589730039239">
        <ele>464.45409999999998</ele>
        <time>2005-11-05T08:11:32Z</time>
      </trkpt>
      <trkpt lat="44.34409512206912" lon="11.158672459423542">
        <ele>466.85739999999998</ele>
        <time>2005-11-05T08:11:38Z</time>
      </trkpt>
      <trkpt lat="44.344063019379973" lon="11.158707579597831">
        <ele>466.85739999999998</ele>
        <time>2005-11-05T08:11:42Z</time>
      </trkpt>
      <trkpt lat="44.344132672995329" lon="11.158791650086641">
        <ele>467.3381</ele>
        <time>2005-11-05T08:11:50Z</time>
      </trkpt>
      <trkpt lat="44.344310704618692" lon="11.158830458298326">
        <ele>471.18329999999997</ele>
        <time>2005-11-05T08:12:04Z</time>
      </trkpt>
      <trkpt lat="44.344484126195312" lon="11.158730713650584">
        <ele>473.10610000000003</ele>
        <time>2005-11-05T08:12:18Z</time>
      </trkpt>
      <trkpt lat="44.344629971310496" lon="11.158581264317036">
        <ele>476.47059999999999</ele>
        <time>2005-11-05T08:12:33Z</time>
      </trkpt>
      <trkpt lat="44.344669785350561" lon="11.158527201041579">
        <ele>476.9513</ele>
        <time>2005-11-05T08:12:38Z</time>
      </trkpt>
      <trkpt lat="44.344725860282779" lon="11.158460145816207">
        <ele>479.35449999999997</ele>
        <time>2005-11-05T08:12:45Z</time>
      </trkpt>
      <trkpt lat="44.344755029305816" lon="11.158440951257944">
        <ele>478.87389999999999</ele>
        <time>2005-11-05T08:12:48Z</time>
      </trkpt>
      <trkpt lat="44.344813534989953" lon="11.158402059227228">
        <ele>480.3159</ele>
        <time>2005-11-05T08:12:53Z</time>
      </trkpt>
      <trkpt lat="44.344944795593619" lon="11.158357551321387">
        <ele>483.68040000000002</ele>
        <time>2005-11-05T08:13:04Z</time>
      </trkpt>
      <trkpt lat="44.345108745619655" lon="11.158388564363122">
        <ele>486.56450000000001</ele>
        <time>2005-11-05T08:13:17Z</time>
      </trkpt>
      <trkpt lat="44.345279736444354" lon="11.158459726721048">
        <ele>489.44839999999999</ele>
        <time>2005-11-05T08:13:31Z</time>
      </trkpt>
      <trkpt lat="44.345469251275063" lon="11.15853114053607">
        <ele>492.81299999999999</ele>
        <time>2005-11-05T08:13:47Z</time>
      </trkpt>
      <trkpt lat="44.345492217689753" lon="11.158538600429893">
        <ele>493.29360000000003</ele>
        <time>2005-11-05T08:13:49Z</time>
      </trkpt>
      <trkpt lat="44.34566798619926" lon="11.158515298739076">
        <ele>496.6583</ele>
        <time>2005-11-05T08:14:01Z</time>
      </trkpt>
      <trkpt lat="44.346314482390881" lon="11.158282784745097">
        <ele>503.38749999999999</ele>
        <time>2005-11-05T08:14:47Z</time>
      </trkpt>
      <trkpt lat="44.346594689413905" lon="11.158294519409537">
        <ele>504.8295</ele>
        <time>2005-11-05T08:15:05Z</time>
      </trkpt>
      <trkpt lat="44.346771547570825" lon="11.158209443092346">
        <ele>506.2715</ele>
        <time>2005-11-05T08:15:17Z</time>
      </trkpt>
      <trkpt lat="44.346994170919061" lon="11.158065022900701">
        <ele>508.19409999999999</ele>
        <time>2005-11-05T08:15:30Z</time>
      </trkpt>
      <trkpt lat="44.347061142325401" lon="11.158026466146111">
        <ele>508.67469999999997</ele>
        <time>2005-11-05T08:15:34Z</time>
      </trkpt>
      <trkpt lat="44.34722819365561" lon="11.158067621290684">
        <ele>508.67469999999997</ele>
        <time>2005-11-05T08:15:37Z</time>
      </trkpt>
      <trkpt lat="44.347426509484649" lon="11.15792621858418">
        <ele>510.59730000000002</ele>
        <time>2005-11-05T08:15:51Z</time>
      </trkpt>
      <trkpt lat="44.347536647692323" lon="11.157900067046285">
        <ele>510.11669999999998</ele>
        <time>2005-11-05T08:15:55Z</time>
      </trkpt>
      <trkpt lat="44.347635386511683" lon="11.157858241349459">
        <ele>509.15539999999999</ele>
        <time>2005-11-05T08:15:57Z</time>
      </trkpt>
      <trkpt lat="44.347841078415513" lon="11.157607454806566">
        <ele>506.2715</ele>
        <time>2005-11-05T08:16:01Z</time>
      </trkpt>
      <trkpt lat="44.34788390994072" lon="11.157403690740466">
        <ele>505.31020000000001</ele>
        <time>2005-11-05T08:16:03Z</time>
      </trkpt>
      <trkpt lat="44.347897656261921" lon="11.157297743484378">
        <ele>505.31020000000001</ele>
        <time>2005-11-05T08:16:04Z</time>
      </trkpt>
      <trkpt lat="44.347953647375107" lon="11.156990714371204">
        <ele>503.86810000000003</ele>
        <time>2005-11-05T08:16:07Z</time>
      </trkpt>
      <trkpt lat="44.348113238811493" lon="11.156804719939828">
        <ele>503.86810000000003</ele>
        <time>2005-11-05T08:16:10Z</time>
      </trkpt>
      <trkpt lat="44.348342902958393" lon="11.156626688316464">
        <ele>503.86810000000003</ele>
      </trkpt>
      <trkpt lat="44.348354302346706" lon="11.155883800238371">
        <ele>503.86810000000003</ele>
      </trkpt>
      <trkpt lat="44.348812121897936" lon="11.155304946005344">
        <ele>503.86810000000003</ele>
      </trkpt>
      <trkpt lat="44.349109595641494" lon="11.15477210842073">
        <ele>502.90679999999998</ele>
        <time>2005-11-05T08:17:25Z</time>
      </trkpt>
      <trkpt lat="44.349624328315258" lon="11.15381246432662">
        <ele>505.79090000000002</ele>
        <time>2005-11-05T08:18:03Z</time>
      </trkpt>
      <trkpt lat="44.349713427945971" lon="11.15366879850626">
        <ele>508.19409999999999</ele>
        <time>2005-11-05T08:18:11Z</time>
      </trkpt>
      <trkpt lat="44.349847035482526" lon="11.153370067477226">
        <ele>507.71350000000001</ele>
        <time>2005-11-05T08:18:25Z</time>
      </trkpt>
      <trkpt lat="44.350128751248121" lon="11.153250373899937">
        <ele>506.75209999999998</ele>
        <time>2005-11-05T08:18:39Z</time>
      </trkpt>
      <trkpt lat="44.350238805636764" lon="11.15311810746789">
        <ele>506.75209999999998</ele>
      </trkpt>
      <trkpt lat="44.350288426503539" lon="11.152788195759058">
        <ele>506.75209999999998</ele>
      </trkpt>
      <trkpt lat="44.350402839481831" lon="11.152552580460906">
        <ele>506.75209999999998</ele>
      </trkpt>
      <trkpt lat="44.350673658773303" lon="11.152166342362761">
        <ele>506.75209999999998</ele>
      </trkpt>
      <trkpt lat="44.350776672363281" lon="11.151910778135061">
        <ele>506.75209999999998</ele>
      </trkpt>
      <trkpt lat="44.35079955495894" lon="11.151688573881984">
        <ele>506.75209999999998</ele>
      </trkpt>
      <trkpt lat="44.350856803357601" lon="11.151622775942087">
        <ele>506.75209999999998</ele>
      </trkpt>
      <trkpt lat="44.351013209670782" lon="11.151551278308034">
        <ele>506.75209999999998</ele>
      </trkpt>
      <trkpt lat="44.351081857457757" lon="11.15139864385128">
        <ele>506.75209999999998</ele>
      </trkpt>
      <trkpt lat="44.351047491654754" lon="11.151045765727758">
        <ele>506.75209999999998</ele>
      </trkpt>
      <trkpt lat="44.351249663159251" lon="11.150769246742129">
        <ele>506.75209999999998</ele>
      </trkpt>
      <trkpt lat="44.351261146366596" lon="11.150506054982543">
        <ele>506.75209999999998</ele>
      </trkpt>
      <trkpt lat="44.351238263770938" lon="11.150281922891736">
        <ele>506.75209999999998</ele>
      </trkpt>
      <trkpt lat="44.351394670084119" lon="11.150165582075715">
        <ele>506.75209999999998</ele>
      </trkpt>
      <trkpt lat="44.351505562663078" lon="11.149891577661037">
        <ele>506.75209999999998</ele>
        <time>2005-11-05T08:20:43Z</time>
      </trkpt>
      <trkpt lat="44.351612851023674" lon="11.149628721177578">
        <ele>509.15539999999999</ele>
        <time>2005-11-05T08:20:59Z</time>
      </trkpt>
      <trkpt lat="44.351783758029342" lon="11.149327307939529">
        <ele>509.15539999999999</ele>
      </trkpt>
      <trkpt lat="44.351711254566908" lon="11.148851383477449">
        <ele>509.15539999999999</ele>
      </trkpt>
      <trkpt lat="44.351638834923506" lon="11.148497583344579">
        <ele>509.15539999999999</ele>
      </trkpt>
      <trkpt lat="44.351573958992958" lon="11.148045547306538">
        <ele>509.15539999999999</ele>
      </trkpt>
      <trkpt lat="44.351539593189955" lon="11.1476831138134">
        <ele>509.15539999999999</ele>
      </trkpt>
      <trkpt lat="44.351749811321497" lon="11.147965164855123">
        <ele>516.84590000000003</ele>
        <time>2005-11-05T08:22:28Z</time>
      </trkpt>
      <trkpt lat="44.351783087477088" lon="11.148028364405036">
        <ele>517.32669999999996</ele>
        <time>2005-11-05T08:22:35Z</time>
      </trkpt>
      <trkpt lat="44.351839916780591" lon="11.148100448772311">
        <ele>518.76859999999999</ele>
        <time>2005-11-05T08:22:44Z</time>
      </trkpt>
      <trkpt lat="44.351975955069065" lon="11.148292645812035">
        <ele>523.09460000000001</ele>
        <time>2005-11-05T08:23:02Z</time>
      </trkpt>
      <trkpt lat="44.352046949788928" lon="11.148387445136905">
        <ele>526.45910000000003</ele>
        <time>2005-11-05T08:23:11Z</time>
      </trkpt>
      <trkpt lat="44.352119201794267" lon="11.148446705192327">
        <ele>527.90099999999995</ele>
        <time>2005-11-05T08:23:22Z</time>
      </trkpt>
      <trkpt lat="44.352183742448688" lon="11.148508144542575">
        <ele>530.30439999999999</ele>
        <time>2005-11-05T08:23:34Z</time>
      </trkpt>
      <trkpt lat="44.352247444912791" lon="11.148571595549583">
        <ele>532.70780000000002</ele>
        <time>2005-11-05T08:23:48Z</time>
      </trkpt>
      <trkpt lat="44.352322714403272" lon="11.148517783731222">
        <ele>534.63040000000001</ele>
        <time>2005-11-05T08:24:01Z</time>
      </trkpt>
      <trkpt lat="44.352397145703435" lon="11.148442262783647">
        <ele>537.03369999999995</ele>
        <time>2005-11-05T08:24:14Z</time>
      </trkpt>
      <trkpt lat="44.352457160130143" lon="11.148431282490492">
        <ele>537.995</ele>
        <time>2005-11-05T08:24:25Z</time>
      </trkpt>
      <trkpt lat="44.352481970563531" lon="11.148430528119206">
        <ele>537.995</ele>
        <time>2005-11-05T08:24:28Z</time>
      </trkpt>
      <trkpt lat="44.352777348831296" lon="11.14839306101203">
        <ele>540.39829999999995</ele>
        <time>2005-11-05T08:24:48Z</time>
      </trkpt>
      <trkpt lat="44.352980609983206" lon="11.14848542958498">
        <ele>540.87890000000004</ele>
        <time>2005-11-05T08:25:00Z</time>
      </trkpt>
      <trkpt lat="44.353040289133787" lon="11.148497750982642">
        <ele>541.35950000000003</ele>
        <time>2005-11-05T08:25:04Z</time>
      </trkpt>
      <trkpt lat="44.353347066789865" lon="11.148392222821712">
        <ele>540.87890000000004</ele>
        <time>2005-11-05T08:25:21Z</time>
      </trkpt>
      <trkpt lat="44.353706482797861" lon="11.148505713790655">
        <ele>538.95630000000006</ele>
        <time>2005-11-05T08:25:37Z</time>
      </trkpt>
      <trkpt lat="44.354085931554437" lon="11.148563297465444">
        <ele>539.43690000000004</ele>
        <time>2005-11-05T08:25:53Z</time>
      </trkpt>
      <trkpt lat="44.354423219338059" lon="11.148573271930218">
        <ele>537.995</ele>
        <time>2005-11-05T08:26:05Z</time>
      </trkpt>
      <trkpt lat="44.354597311466932" lon="11.148585174232721">
        <ele>538.47569999999996</ele>
        <time>2005-11-05T08:26:16Z</time>
      </trkpt>
      <trkpt lat="44.354784647002816" lon="11.148866973817348">
        <ele>538.95630000000006</ele>
        <time>2005-11-05T08:26:33Z</time>
      </trkpt>
      <trkpt lat="44.355142302811146" lon="11.14900091663003">
        <ele>539.91759999999999</ele>
        <time>2005-11-05T08:26:51Z</time>
      </trkpt>
      <trkpt lat="44.355486799031496" lon="11.149031426757574">
        <ele>540.87890000000004</ele>
        <time>2005-11-05T08:27:09Z</time>
      </trkpt>
      <trkpt lat="44.355823835358024" lon="11.148964539170265">
        <ele>542.80150000000003</ele>
        <time>2005-11-05T08:27:27Z</time>
      </trkpt>
      <trkpt lat="44.356264974921942" lon="11.148856077343225">
        <ele>540.87890000000004</ele>
        <time>2005-11-05T08:27:44Z</time>
      </trkpt>
      <trkpt lat="44.356526993215084" lon="11.14864862523973">
        <ele>540.39829999999995</ele>
        <time>2005-11-05T08:27:56Z</time>
      </trkpt>
      <trkpt lat="44.356841314584017" lon="11.148423738777637">
        <ele>542.80150000000003</ele>
        <time>2005-11-05T08:28:16Z</time>
      </trkpt>
      <trkpt lat="44.356938963755965" lon="11.148290550336242">
        <ele>544.24369999999999</ele>
        <time>2005-11-05T08:28:23Z</time>
      </trkpt>
      <trkpt lat="44.356983304023743" lon="11.147824097424746">
        <ele>548.08889999999997</ele>
        <time>2005-11-05T08:28:52Z</time>
      </trkpt>
      <trkpt lat="44.356987830251455" lon="11.147711779922247">
        <ele>551.45339999999999</ele>
        <time>2005-11-05T08:29:04Z</time>
      </trkpt>
      <trkpt lat="44.357048766687512" lon="11.147664505988359">
        <ele>549.5308</ele>
        <time>2005-11-05T08:29:15Z</time>
      </trkpt>
      <trkpt lat="44.357326291501522" lon="11.147289834916592">
        <ele>549.04999999999995</ele>
        <time>2005-11-05T08:29:30Z</time>
      </trkpt>
      <trkpt lat="44.357583364471793" lon="11.147095626220107">
        <ele>547.60820000000001</ele>
        <time>2005-11-05T08:29:42Z</time>
      </trkpt>
      <trkpt lat="44.357770700007677" lon="11.146880630403757">
        <ele>548.5693</ele>
        <time>2005-11-05T08:29:58Z</time>
      </trkpt>
      <trkpt lat="44.357749577611685" lon="11.146528925746679">
        <ele>549.5308</ele>
        <time>2005-11-05T08:30:17Z</time>
      </trkpt>
      <trkpt lat="44.35779819265008" lon="11.146485507488251">
        <ele>549.5308</ele>
        <time>2005-11-05T08:30:21Z</time>
      </trkpt>
      <trkpt lat="44.358026096597314" lon="11.146290963515639">
        <ele>550.97270000000003</ele>
        <time>2005-11-05T08:30:39Z</time>
      </trkpt>
      <trkpt lat="44.358192645013332" lon="11.145721916109324">
        <ele>557.22140000000002</ele>
        <time>2005-11-05T08:31:35Z</time>
      </trkpt>
      <trkpt lat="44.358200104907155" lon="11.145617561414838">
        <ele>560.58590000000004</ele>
        <time>2005-11-05T08:31:49Z</time>
      </trkpt>
      <trkpt lat="44.358218042179942" lon="11.145439026877284">
        <ele>561.54740000000004</ele>
        <time>2005-11-05T08:31:59Z</time>
      </trkpt>
      <trkpt lat="44.358307980000973" lon="11.14519746042788">
        <ele>563.95039999999995</ele>
        <time>2005-11-05T08:32:13Z</time>
      </trkpt>
      <trkpt lat="44.358358355239034" lon="11.145087908953428">
        <ele>565.87329999999997</ele>
        <time>2005-11-05T08:32:21Z</time>
      </trkpt>
      <trkpt lat="44.358493974432349" lon="11.144892945885658">
        <ele>568.75710000000004</ele>
        <time>2005-11-05T08:32:41Z</time>
      </trkpt>
      <trkpt lat="44.358495064079762" lon="11.144857322797179">
        <ele>570.67970000000003</ele>
        <time>2005-11-05T08:32:52Z</time>
      </trkpt>
      <trkpt lat="44.358520125970244" lon="11.144694797694683">
        <ele>572.60249999999996</ele>
        <time>2005-11-05T08:33:10Z</time>
      </trkpt>
      <trkpt lat="44.358583241701126" lon="11.144514586776495">
        <ele>574.52509999999995</ele>
        <time>2005-11-05T08:33:40Z</time>
      </trkpt>
      <trkpt lat="44.358618445694447" lon="11.144304620102048">
        <ele>576.92849999999999</ele>
        <time>2005-11-05T08:33:58Z</time>
      </trkpt>
      <trkpt lat="44.35862204991281" lon="11.144186686724424">
        <ele>577.40920000000006</ele>
        <time>2005-11-05T08:34:13Z</time>
      </trkpt>
      <trkpt lat="44.358607465401292" lon="11.143959537148476">
        <ele>577.88959999999997</ele>
        <time>2005-11-05T08:34:47Z</time>
      </trkpt>
      <trkpt lat="44.358598245307803" lon="11.143928524106741">
        <ele>577.88959999999997</ele>
        <time>2005-11-05T08:35:13Z</time>
      </trkpt>
      <trkpt lat="44.358593467622995" lon="11.143853170797229">
        <ele>579.33150000000001</ele>
        <time>2005-11-05T08:35:56Z</time>
      </trkpt>
      <trkpt lat="44.358611907809973" lon="11.143597858026624">
        <ele>582.21559999999999</ele>
        <time>2005-11-05T08:36:17Z</time>
      </trkpt>
      <trkpt lat="44.35852037742734" lon="11.143367271870375">
        <ele>586.06079999999997</ele>
        <time>2005-11-05T08:36:35Z</time>
      </trkpt>
      <trkpt lat="44.358412083238363" lon="11.143212793394923">
        <ele>587.98339999999996</ele>
        <time>2005-11-05T08:36:54Z</time>
      </trkpt>
      <trkpt lat="44.358400013297796" lon="11.143154120072722">
        <ele>587.5027</ele>
        <time>2005-11-05T08:37:00Z</time>
      </trkpt>
      <trkpt lat="44.358397582545877" lon="11.142959743738174">
        <ele>587.5027</ele>
        <time>2005-11-05T08:37:12Z</time>
      </trkpt>
      <trkpt lat="44.358475869521499" lon="11.142589012160897">
        <ele>588.94510000000002</ele>
        <time>2005-11-05T08:37:31Z</time>
      </trkpt>
      <trkpt lat="44.358665300533175" lon="11.141485366970301">
        <ele>590.86739999999998</ele>
        <time>2005-11-05T08:38:26Z</time>
      </trkpt>
      <trkpt lat="44.358704779297113" lon="11.141438679769635">
        <ele>588.46439999999996</ele>
        <time>2005-11-05T08:38:29Z</time>
      </trkpt>
      <trkpt lat="44.358855737373233" lon="11.141372798010707">
        <ele>591.82889999999998</ele>
        <time>2005-11-05T08:38:40Z</time>
      </trkpt>
      <trkpt lat="44.358880799263716" lon="11.141418563202024">
        <ele>592.7903</ele>
        <time>2005-11-05T08:38:44Z</time>
      </trkpt>
      <trkpt lat="44.358902424573898" lon="11.141633475199342">
        <ele>595.1934</ele>
        <time>2005-11-05T08:39:02Z</time>
      </trkpt>
      <trkpt lat="44.358987249433994" lon="11.14182885736227">
        <ele>598.07740000000001</ele>
        <time>2005-11-05T08:39:20Z</time>
      </trkpt>
      <trkpt lat="44.359101327136159" lon="11.141939079388976">
        <ele>599.51930000000004</ele>
        <time>2005-11-05T08:39:36Z</time>
      </trkpt>
      <trkpt lat="44.35915513895452" lon="11.141947126016021">
        <ele>600</ele>
        <time>2005-11-05T08:39:43Z</time>
      </trkpt>
      <trkpt lat="44.359300145879388" lon="11.141952909529209">
        <ele>603.36450000000002</ele>
        <time>2005-11-05T08:39:54Z</time>
      </trkpt>
      <trkpt lat="44.35947859659791" lon="11.141888033598661">
        <ele>604.8066</ele>
        <time>2005-11-05T08:40:10Z</time>
      </trkpt>
      <trkpt lat="44.359650341793895" lon="11.141660800203681">
        <ele>607.69069999999999</ele>
        <time>2005-11-05T08:40:30Z</time>
      </trkpt>
      <trkpt lat="44.359770203009248" lon="11.141497436910868">
        <ele>611.05520000000001</ele>
        <time>2005-11-05T08:40:46Z</time>
      </trkpt>
      <trkpt lat="44.359860979020596" lon="11.141383778303862">
        <ele>613.93899999999996</ele>
        <time>2005-11-05T08:41:03Z</time>
      </trkpt>
      <trkpt lat="44.35994622297585" lon="11.141285877674818">
        <ele>615.38109999999995</ele>
        <time>2005-11-05T08:41:35Z</time>
      </trkpt>
      <trkpt lat="44.360073460265994" lon="11.141173476353288">
        <ele>617.78420000000006</ele>
        <time>2005-11-05T08:41:53Z</time>
      </trkpt>
      <trkpt lat="44.360246881842613" lon="11.140786064788699">
        <ele>623.07180000000005</ele>
        <time>2005-11-05T08:42:24Z</time>
      </trkpt>
      <trkpt lat="44.360333550721407" lon="11.140824956819415">
        <ele>623.07180000000005</ele>
        <time>2005-11-05T08:43:34Z</time>
      </trkpt>
      <trkpt lat="44.360513258725405" lon="11.140653630718589">
        <ele>622.11040000000003</ele>
        <time>2005-11-05T08:43:47Z</time>
      </trkpt>
      <trkpt lat="44.360674694180489" lon="11.140445256605744">
        <ele>624.03300000000002</ele>
        <time>2005-11-05T08:44:02Z</time>
      </trkpt>
      <trkpt lat="44.360826155170798" lon="11.140273679047823">
        <ele>626.91700000000003</ele>
        <time>2005-11-05T08:44:17Z</time>
      </trkpt>
      <trkpt lat="44.360956409946084" lon="11.140137724578381">
        <ele>628.35889999999995</ele>
        <time>2005-11-05T08:44:32Z</time>
      </trkpt>
      <trkpt lat="44.361122790724039" lon="11.139992382377386">
        <ele>631.72339999999997</ele>
        <time>2005-11-05T08:44:48Z</time>
      </trkpt>
      <trkpt lat="44.361168304458261" lon="11.139891548082232">
        <ele>634.12670000000003</ele>
        <time>2005-11-05T08:44:53Z</time>
      </trkpt>
      <trkpt lat="44.361184230074286" lon="11.139847207814455">
        <ele>634.12670000000003</ele>
        <time>2005-11-05T08:45:02Z</time>
      </trkpt>
      <trkpt lat="44.361243238672614" lon="11.139688789844513">
        <ele>636.04960000000005</ele>
        <time>2005-11-05T08:45:16Z</time>
      </trkpt>
      <trkpt lat="44.361265618354082" lon="11.139651406556368">
        <ele>637.49149999999997</ele>
        <time>2005-11-05T08:45:20Z</time>
      </trkpt>
      <trkpt lat="44.361353209242225" lon="11.139497263357043">
        <ele>639.89480000000003</ele>
        <time>2005-11-05T08:45:36Z</time>
      </trkpt>
      <trkpt lat="44.361413894221187" lon="11.13935736939311">
        <ele>642.298</ele>
        <time>2005-11-05T08:45:51Z</time>
      </trkpt>
      <trkpt lat="44.361489666625857" lon="11.139227701351047">
        <ele>644.70119999999997</ele>
        <time>2005-11-05T08:46:04Z</time>
      </trkpt>
      <trkpt lat="44.361570300534368" lon="11.139094429090619">
        <ele>646.62400000000002</ele>
        <time>2005-11-05T08:46:20Z</time>
      </trkpt>
      <trkpt lat="44.361578850075603" lon="11.139120664447546">
        <ele>646.62400000000002</ele>
        <time>2005-11-05T08:46:42Z</time>
      </trkpt>
      <trkpt lat="44.361624112352729" lon="11.13888043910265">
        <ele>649.50779999999997</ele>
        <time>2005-11-05T08:46:59Z</time>
      </trkpt>
      <trkpt lat="44.361647330224514" lon="11.138588916510344">
        <ele>651.43050000000005</ele>
        <time>2005-11-05T08:47:16Z</time>
      </trkpt>
      <trkpt lat="44.361705835908651" lon="11.138398395851254">
        <ele>651.43050000000005</ele>
        <time>2005-11-05T08:47:30Z</time>
      </trkpt>
      <trkpt lat="44.36175755225122" lon="11.137938983738422">
        <ele>651.43050000000005</ele>
        <time>2005-11-05T08:47:50Z</time>
      </trkpt>
      <trkpt lat="44.361704578623176" lon="11.137806717306376">
        <ele>652.39189999999996</ele>
        <time>2005-11-05T08:48:04Z</time>
      </trkpt>
      <trkpt lat="44.361700052395463" lon="11.137795988470316">
        <ele>652.39189999999996</ele>
        <time>2005-11-05T08:48:05Z</time>
      </trkpt>
      <trkpt lat="44.361630147323012" lon="11.137629440054297">
        <ele>652.87249999999995</ele>
        <time>2005-11-05T08:48:20Z</time>
      </trkpt>
      <trkpt lat="44.361764676868916" lon="11.13764033652842">
        <ele>654.31460000000004</ele>
        <time>2005-11-05T08:48:34Z</time>
      </trkpt>
      <trkpt lat="44.36194765381515" lon="11.137790037319064">
        <ele>657.19849999999997</ele>
        <time>2005-11-05T08:48:44Z</time>
      </trkpt>
      <trkpt lat="44.362155944108963" lon="11.13792129792273">
        <ele>657.19849999999997</ele>
      </trkpt>
      <trkpt lat="44.362285612151027" lon="11.137865055352449">
        <ele>657.19849999999997</ele>
      </trkpt>
      <trkpt lat="44.362291982397437" lon="11.137714851647615">
        <ele>661.04369999999994</ele>
        <time>2005-11-05T08:54:21Z</time>
      </trkpt>
      <trkpt lat="44.362200787290931" lon="11.137718958780169">
        <ele>662.00509999999997</ele>
        <time>2005-11-05T08:54:28Z</time>
      </trkpt>
      <trkpt lat="44.362120823934674" lon="11.137506058439612">
        <ele>665.36959999999999</ele>
        <time>2005-11-05T08:54:41Z</time>
      </trkpt>
      <trkpt lat="44.362066341564059" lon="11.137295169755816">
        <ele>667.29219999999998</ele>
        <time>2005-11-05T08:54:53Z</time>
      </trkpt>
      <trkpt lat="44.362083692103624" lon="11.13718394190073">
        <ele>668.25369999999998</ele>
        <time>2005-11-05T08:54:58Z</time>
      </trkpt>
      <trkpt lat="44.362052176147699" lon="11.137105906382203">
        <ele>668.73440000000005</ele>
        <time>2005-11-05T08:55:02Z</time>
      </trkpt>
      <trkpt lat="44.361951593309641" lon="11.13697674125433">
        <ele>670.65700000000004</ele>
        <time>2005-11-05T08:55:13Z</time>
      </trkpt>
      <trkpt lat="44.361871210858226" lon="11.136886887252331">
        <ele>673.06029999999998</ele>
        <time>2005-11-05T08:55:20Z</time>
      </trkpt>
      <trkpt lat="44.361861990764737" lon="11.136868698522449">
        <ele>673.54100000000005</ele>
        <time>2005-11-05T08:55:22Z</time>
      </trkpt>
      <trkpt lat="44.361714217811823" lon="11.136743556708097">
        <ele>676.4248</ele>
        <time>2005-11-05T08:55:36Z</time>
      </trkpt>
      <trkpt lat="44.361680187284946" lon="11.136712040752172">
        <ele>676.4248</ele>
        <time>2005-11-05T08:55:39Z</time>
      </trkpt>
      <trkpt lat="44.361544568091631" lon="11.136563597247005">
        <ele>680.26999999999998</ele>
        <time>2005-11-05T08:55:53Z</time>
      </trkpt>
      <trkpt lat="44.361521350219846" lon="11.136540295556188">
        <ele>680.26999999999998</ele>
        <time>2005-11-05T08:55:55Z</time>
      </trkpt>
      <trkpt lat="44.361509112641215" lon="11.136509282514453">
        <ele>680.26999999999998</ele>
        <time>2005-11-05T08:55:57Z</time>
      </trkpt>
      <trkpt lat="44.361338289454579" lon="11.136298310011625">
        <ele>681.71190000000001</ele>
        <time>2005-11-05T08:56:16Z</time>
      </trkpt>
      <trkpt lat="44.361077360808849" lon="11.136186830699444">
        <ele>683.15380000000005</ele>
        <time>2005-11-05T08:56:35Z</time>
      </trkpt>
      <trkpt lat="44.360795393586159" lon="11.136121116578579">
        <ele>686.03800000000001</ele>
        <time>2005-11-05T08:56:51Z</time>
      </trkpt>
      <trkpt lat="44.360593808814883" lon="11.136103766039014">
        <ele>688.44140000000004</ele>
        <time>2005-11-05T08:57:06Z</time>
      </trkpt>
      <trkpt lat="44.360421393066645" lon="11.136181382462382">
        <ele>690.84450000000004</ele>
        <time>2005-11-05T08:57:19Z</time>
      </trkpt>
      <trkpt lat="44.360353415831923" lon="11.136250365525484">
        <ele>691.80589999999995</ele>
        <time>2005-11-05T08:57:25Z</time>
      </trkpt>
      <trkpt lat="44.360160380601883" lon="11.136504421010613">
        <ele>693.72850000000005</ele>
        <time>2005-11-05T08:57:42Z</time>
      </trkpt>
      <trkpt lat="44.36012065038085" lon="11.136572398245335">
        <ele>694.20920000000001</ele>
        <time>2005-11-05T08:57:47Z</time>
      </trkpt>
      <trkpt lat="44.35995452105999" lon="11.136654792353511">
        <ele>697.57370000000003</ele>
        <time>2005-11-05T08:58:02Z</time>
      </trkpt>
      <trkpt lat="44.35979719273746" lon="11.136703994125128">
        <ele>699.01559999999995</ele>
        <time>2005-11-05T08:58:17Z</time>
      </trkpt>
      <trkpt lat="44.35951229184866" lon="11.136817904189229">
        <ele>700.01599999999996</ele>
      </trkpt>
      <trkpt lat="44.359469711780548" lon="11.136911110952497">
        <ele>704.78369999999995</ele>
        <time>2005-11-05T09:00:10Z</time>
      </trkpt>
      <trkpt lat="44.359283465892076" lon="11.137103056535125">
        <ele>704.78369999999995</ele>
      </trkpt>
      <trkpt lat="44.359031673520803" lon="11.136915218085051">
        <ele>704.78369999999995</ele>
      </trkpt>
      <trkpt lat="44.358844757080078" lon="11.137110684067011">
        <ele>704.78369999999995</ele>
      </trkpt>
      <trkpt lat="44.358631102368236" lon="11.137125939130783">
        <ele>704.78369999999995</ele>
      </trkpt>
      <trkpt lat="44.358573937788606" lon="11.137480745092034">
        <ele>704.78369999999995</ele>
      </trkpt>
      <trkpt lat="44.358448041602969" lon="11.137679060921073">
        <ele>704.78369999999995</ele>
      </trkpt>
      <trkpt lat="44.35832591727376" lon="11.138233188539743">
        <ele>700.78399999999999</ele>
      </trkpt>
      <trkpt lat="44.358127601444721" lon="11.138404849916697">
        <ele>700.78399999999999</ele>
      </trkpt>
      <trkpt lat="44.357940685003996" lon="11.138917906209826">
        <ele>685.78399999999999</ele>
      </trkpt>
      <trkpt lat="44.357738513499498" lon="11.139081940054893">
        <ele>685.78399999999999</ele>
      </trkpt>
      <trkpt lat="44.35771563090384" lon="11.139407157897949">
        <ele>680.78399999999999</ele>
      </trkpt>
      <trkpt lat="44.357650754973292" lon="11.13950539380312">
        <ele>680.78399999999999</ele>
      </trkpt>
      <trkpt lat="44.357708003371954" lon="11.139973606914282">
        <ele>675.78399999999999</ele>
      </trkpt>
      <trkpt lat="44.357509603723884" lon="11.140704173594713">
        <ele>675.78399999999999</ele>
      </trkpt>
      <trkpt lat="44.357269294559956" lon="11.140983542427421">
        <ele>675.78399999999999</ele>
      </trkpt>
      <trkpt lat="44.357341798022389" lon="11.141497604548931">
        <ele>675.78399999999999</ele>
      </trkpt>
      <trkpt lat="44.357215901836753" lon="11.14179708994925">
        <ele>675.78399999999999</ele>
      </trkpt>
      <trkpt lat="44.35700224712491" lon="11.142642991617322">
        <ele>680.78399999999999</ele>
      </trkpt>
      <trkpt lat="44.356790771707892" lon="11.143313040956855">
        <ele>685.55740000000003</ele>
        <time>2005-11-05T09:05:31Z</time>
      </trkpt>
      <trkpt lat="44.356589941307902" lon="11.143534407019615">
        <ele>688.44140000000004</ele>
        <time>2005-11-05T09:05:48Z</time>
      </trkpt>
      <trkpt lat="44.356345105916262" lon="11.143693998456001">
        <ele>690.36400000000003</ele>
        <time>2005-11-05T09:06:03Z</time>
      </trkpt>
      <trkpt lat="44.356208313256502" lon="11.143660470843315">
        <ele>690.36400000000003</ele>
        <time>2005-11-05T09:06:09Z</time>
      </trkpt>
      <trkpt lat="44.355993736535311" lon="11.143869180232286">
        <ele>691.80589999999995</ele>
        <time>2005-11-05T09:06:22Z</time>
      </trkpt>
      <trkpt lat="44.355778992176056" lon="11.144016198813915">
        <ele>693.72850000000005</ele>
        <time>2005-11-05T09:06:37Z</time>
      </trkpt>
      <trkpt lat="44.355591489002109" lon="11.144193392246962">
        <ele>693.72850000000005</ele>
        <time>2005-11-05T09:06:50Z</time>
      </trkpt>
      <trkpt lat="44.355400884523988" lon="11.144341081380844">
        <ele>694.20920000000001</ele>
        <time>2005-11-05T09:07:05Z</time>
      </trkpt>
      <trkpt lat="44.355383533984423" lon="11.1443658079952">
        <ele>695.65120000000002</ele>
        <time>2005-11-05T09:07:07Z</time>
      </trkpt>
      <trkpt lat="44.355270378291607" lon="11.144453063607216">
        <ele>695.65120000000002</ele>
      </trkpt>
      <trkpt lat="44.355118246749043" lon="11.144426576793194">
        <ele>699.49630000000002</ele>
        <time>2005-11-05T09:07:31Z</time>
      </trkpt>
      <trkpt lat="44.355130819603801" lon="11.144355079159141">
        <ele>700.45799999999997</ele>
        <time>2005-11-05T09:07:36Z</time>
      </trkpt>
      <trkpt lat="44.355132579803467" lon="11.144240582361817">
        <ele>700.93849999999998</ele>
        <time>2005-11-05T09:07:43Z</time>
      </trkpt>
      <trkpt lat="44.355222349986434" lon="11.143959956243634">
        <ele>703.34180000000003</ele>
        <time>2005-11-05T09:08:02Z</time>
      </trkpt>
      <trkpt lat="44.355294769629836" lon="11.143744206055999">
        <ele>702.38040000000001</ele>
        <time>2005-11-05T09:19:31Z</time>
      </trkpt>
      <trkpt lat="44.355132579803467" lon="11.143484115600586">
        <ele>681.71190000000001</ele>
        <time>2005-11-05T09:19:39Z</time>
      </trkpt>
      <trkpt lat="44.355068206787109" lon="11.143205165863037">
        <ele>676.4248</ele>
        <time>2005-11-05T09:19:44Z</time>
      </trkpt>
      <trkpt lat="44.355068206787109" lon="11.143097877502441">
        <ele>675.94410000000005</ele>
        <time>2005-11-05T09:19:46Z</time>
      </trkpt>
      <trkpt lat="44.354982376098633" lon="11.142668724060059">
        <ele>671.1377</ele>
        <time>2005-11-05T09:19:54Z</time>
      </trkpt>
      <trkpt lat="44.354960918426514" lon="11.142518520355225">
        <ele>669.69579999999996</ele>
        <time>2005-11-05T09:19:57Z</time>
      </trkpt>
      <trkpt lat="44.354939460754395" lon="11.142346858978271">
        <ele>666.33079999999995</ele>
        <time>2005-11-05T09:20:00Z</time>
      </trkpt>
      <trkpt lat="44.354918003082275" lon="11.142196655273437">
        <ele>662.96640000000002</ele>
        <time>2005-11-05T09:20:03Z</time>
      </trkpt>
      <trkpt lat="44.354896545410156" lon="11.141982078552246">
        <ele>659.12109999999996</ele>
        <time>2005-11-05T09:20:07Z</time>
      </trkpt>
      <trkpt lat="44.353717798367143" lon="11.143163675442338">
        <ele>650.12099999999998</ele>
      </trkpt>
      <trkpt lat="44.353602714836597" lon="11.14297273568809">
        <ele>685.49519999999995</ele>
        <time>2005-11-05T16:15:29Z</time>
      </trkpt>
      <trkpt lat="44.353440692648292" lon="11.142976759001613">
        <ele>685.49519999999995</ele>
        <time>2005-11-05T16:15:29Z</time>
      </trkpt>
      <trkpt lat="44.353196695446968" lon="11.143104750663042">
        <ele>680.61839999999995</ele>
        <time>2005-11-05T16:15:29Z</time>
      </trkpt>
      <trkpt lat="44.353034673258662" lon="11.143018752336502">
        <ele>684.88559999999995</ele>
        <time>2005-11-05T16:15:29Z</time>
      </trkpt>
      <trkpt lat="44.352925708517432" lon="11.143030738458037">
        <ele>684.27599999999995</ele>
        <time>2005-11-05T16:15:29Z</time>
      </trkpt>
      <trkpt lat="44.352842727676034" lon="11.143127717077732">
        <ele>679.70399999999995</ele>
        <time>2005-11-05T16:15:29Z</time>
      </trkpt>
      <trkpt lat="44.352725716307759" lon="11.143099721521139">
        <ele>680.00879999999995</ele>
        <time>2005-11-05T16:15:29Z</time>
      </trkpt>
      <trkpt lat="44.352505691349506" lon="11.142895789816976">
        <ele>685.49519999999995</ele>
        <time>2005-11-05T16:15:29Z</time>
      </trkpt>
      <trkpt lat="44.352331683039665" lon="11.142716752365232">
        <ele>688.84799999999996</ele>
        <time>2005-11-05T16:15:29Z</time>
      </trkpt>
      <trkpt lat="44.352114675566554" lon="11.142924791201949">
        <ele>680.31359999999995</ele>
        <time>2005-11-05T16:15:29Z</time>
      </trkpt>
      <trkpt lat="44.351960700005293" lon="11.143027720972896">
        <ele>674.52239999999995</ele>
        <time>2005-11-05T16:15:29Z</time>
      </trkpt>
      <trkpt lat="44.351739669218659" lon="11.143027720972896">
        <ele>670.86479999999995</ele>
        <time>2005-11-05T16:15:29Z</time>
      </trkpt>
      <trkpt lat="44.351594662293792" lon="11.142817754298449">
        <ele>673.91279999999995</ele>
        <time>2005-11-05T16:15:29Z</time>
      </trkpt>
      <trkpt lat="44.351438675075769" lon="11.142276786267757">
        <ele>682.75199999999995</ele>
        <time>2005-11-05T16:15:29Z</time>
      </trkpt>
      <trkpt lat="44.351306743919849" lon="11.142107723280787">
        <ele>683.36159999999995</ele>
        <time>2005-11-05T16:15:29Z</time>
      </trkpt>
      <trkpt lat="44.351194677874446" lon="11.14163976162672">
        <ele>688.54319999999996</ele>
        <time>2005-11-05T16:15:29Z</time>
      </trkpt>
      <trkpt lat="44.351047743111849" lon="11.141393752768636">
        <ele>687.01919999999996</ele>
        <time>2005-11-05T16:15:29Z</time>
      </trkpt>
      <trkpt lat="44.350851690396667" lon="11.141434740275145">
        <ele>679.70399999999995</ele>
        <time>2005-11-05T16:15:29Z</time>
      </trkpt>
      <trkpt lat="44.350547762587667" lon="11.141573879867792">
        <ele>679.70399999999995</ele>
      </trkpt>
      <trkpt lat="44.350712299346924" lon="11.141295433044434">
        <ele>681.23140000000001</ele>
        <time>2005-11-05T09:28:45Z</time>
      </trkpt>
      <trkpt lat="44.350626468658447" lon="11.140801906585693">
        <ele>678.34739999999999</ele>
        <time>2005-11-05T09:29:06Z</time>
      </trkpt>
      <trkpt lat="44.350605010986328" lon="11.140737533569336">
        <ele>677.38620000000003</ele>
        <time>2005-11-05T09:29:08Z</time>
      </trkpt>
      <trkpt lat="44.350497722625732" lon="11.140458583831787">
        <ele>674.9828</ele>
        <time>2005-11-05T09:29:12Z</time>
      </trkpt>
      <trkpt lat="44.350476264953613" lon="11.140201091766357">
        <ele>674.02149999999995</ele>
        <time>2005-11-05T09:29:15Z</time>
      </trkpt>
      <trkpt lat="44.350411891937256" lon="11.139750480651855">
        <ele>670.65700000000004</ele>
        <time>2005-11-05T09:29:21Z</time>
      </trkpt>
      <trkpt lat="44.350390434265137" lon="11.139535903930664">
        <ele>667.29219999999998</ele>
        <time>2005-11-05T09:29:24Z</time>
      </trkpt>
      <trkpt lat="44.350347518920898" lon="11.139256954193115">
        <ele>663.92750000000001</ele>
        <time>2005-11-05T09:29:28Z</time>
      </trkpt>
      <trkpt lat="44.35030460357666" lon="11.139042377471924">
        <ele>661.52440000000001</ele>
        <time>2005-11-05T09:29:31Z</time>
      </trkpt>
      <trkpt lat="44.350261688232422" lon="11.138913631439209">
        <ele>659.60180000000003</ele>
        <time>2005-11-05T09:29:33Z</time>
      </trkpt>
      <trkpt lat="44.350240230560303" lon="11.138527393341064">
        <ele>655.27589999999998</ele>
        <time>2005-11-05T09:29:39Z</time>
      </trkpt>
      <trkpt lat="44.350240230560303" lon="11.138484477996826">
        <ele>654.31460000000004</ele>
        <time>2005-11-05T09:29:40Z</time>
      </trkpt>
      <trkpt lat="44.350347518920898" lon="11.138269901275635">
        <ele>650.94970000000001</ele>
        <time>2005-11-05T09:29:45Z</time>
      </trkpt>
      <trkpt lat="44.350411891937256" lon="11.138226985931396">
        <ele>647.58519999999999</ele>
        <time>2005-11-05T09:29:47Z</time>
      </trkpt>
      <trkpt lat="44.350497722625732" lon="11.13814115524292">
        <ele>643.74000000000001</ele>
        <time>2005-11-05T09:29:50Z</time>
      </trkpt>
      <trkpt lat="44.350519180297852" lon="11.138119697570801">
        <ele>641.81740000000002</ele>
        <time>2005-11-05T09:29:51Z</time>
      </trkpt>
      <trkpt lat="44.350647926330566" lon="11.138033866882324">
        <ele>637.01070000000004</ele>
        <time>2005-11-05T09:29:54Z</time>
      </trkpt>
      <trkpt lat="44.350733757019043" lon="11.137990951538086">
        <ele>634.12670000000003</ele>
        <time>2005-11-05T09:29:56Z</time>
      </trkpt>
      <trkpt lat="44.350862503051758" lon="11.137926578521729">
        <ele>631.72339999999997</ele>
        <time>2005-11-05T09:29:59Z</time>
      </trkpt>
      <trkpt lat="44.350948333740234" lon="11.13788366317749">
        <ele>628.35889999999995</ele>
        <time>2005-11-05T09:30:01Z</time>
      </trkpt>
      <trkpt lat="44.35105562210083" lon="11.137797832489014">
        <ele>625.47490000000005</ele>
        <time>2005-11-05T09:30:04Z</time>
      </trkpt>
      <trkpt lat="44.351098537445068" lon="11.137776374816895">
        <ele>625.47490000000005</ele>
        <time>2005-11-05T09:30:05Z</time>
      </trkpt>
      <trkpt lat="44.351270198822021" lon="11.137669086456299">
        <ele>621.62959999999998</ele>
        <time>2005-11-05T09:30:09Z</time>
      </trkpt>
      <trkpt lat="44.351463317871094" lon="11.137540340423584">
        <ele>618.74559999999997</ele>
        <time>2005-11-05T09:30:13Z</time>
      </trkpt>
      <trkpt lat="44.35154914855957" lon="11.137454509735107">
        <ele>617.78420000000006</ele>
        <time>2005-11-05T09:30:15Z</time>
      </trkpt>
      <trkpt lat="44.351763725280762" lon="11.137304306030273">
        <ele>615.86180000000002</ele>
        <time>2005-11-05T09:30:19Z</time>
      </trkpt>
      <trkpt lat="44.352107048034668" lon="11.137046813964844">
        <ele>612.9778</ele>
        <time>2005-11-05T09:30:25Z</time>
      </trkpt>
      <trkpt lat="44.352321624755859" lon="11.136832237243652">
        <ele>612.01660000000004</ele>
        <time>2005-11-05T09:30:29Z</time>
      </trkpt>
      <trkpt lat="44.35255765914917" lon="11.136574745178223">
        <ele>607.21000000000004</ele>
        <time>2005-11-05T09:30:34Z</time>
      </trkpt>
      <trkpt lat="44.352707862854004" lon="11.136360168457031">
        <ele>604.32619999999997</ele>
        <time>2005-11-05T09:30:37Z</time>
      </trkpt>
      <trkpt lat="44.352750778198242" lon="11.136081218719482">
        <ele>599.51930000000004</ele>
        <time>2005-11-05T09:30:41Z</time>
      </trkpt>
      <trkpt lat="44.352750778198242" lon="11.136016845703125">
        <ele>599.51930000000004</ele>
        <time>2005-11-05T09:30:42Z</time>
      </trkpt>
      <trkpt lat="44.352729320526123" lon="11.135802268981934">
        <ele>595.67409999999995</ele>
        <time>2005-11-05T09:30:46Z</time>
      </trkpt>
      <trkpt lat="44.352707862854004" lon="11.135587692260742">
        <ele>592.7903</ele>
        <time>2005-11-05T09:30:50Z</time>
      </trkpt>
      <trkpt lat="44.352686405181885" lon="11.135544776916504">
        <ele>591.34810000000004</ele>
        <time>2005-11-05T09:30:52Z</time>
      </trkpt>
      <trkpt lat="44.352643489837646" lon="11.135501861572266">
        <ele>592.30960000000005</ele>
        <time>2005-11-05T09:31:24Z</time>
      </trkpt>
      <trkpt lat="44.352622032165527" lon="11.135416030883789">
        <ele>588.94510000000002</ele>
        <time>2005-11-05T09:31:34Z</time>
      </trkpt>
      <trkpt lat="44.352579116821289" lon="11.135287284851074">
        <ele>587.02200000000005</ele>
        <time>2005-11-05T09:31:36Z</time>
      </trkpt>
      <trkpt lat="44.352579116821289" lon="11.135072708129883">
        <ele>585.09960000000001</ele>
        <time>2005-11-05T09:31:40Z</time>
      </trkpt>
      <trkpt lat="44.352596299722791" lon="11.134831393137574">
        <ele>585.09960000000001</ele>
      </trkpt>
      <trkpt lat="44.352767961099744" lon="11.134802810847759">
        <ele>585.09960000000001</ele>
      </trkpt>
      <trkpt lat="44.352900981903076" lon="11.134836673736572">
        <ele>584.13819999999998</ele>
        <time>2005-11-05T09:32:33Z</time>
      </trkpt>
      <trkpt lat="44.353072643280029" lon="11.134879589080811">
        <ele>583.65750000000003</ele>
        <time>2005-11-05T09:32:38Z</time>
      </trkpt>
      <trkpt lat="44.353201389312744" lon="11.134600639343262">
        <ele>581.25440000000003</ele>
        <time>2005-11-05T09:32:42Z</time>
      </trkpt>
      <trkpt lat="44.35330867767334" lon="11.134493350982666">
        <ele>579.33150000000001</ele>
        <time>2005-11-05T09:32:44Z</time>
      </trkpt>
      <trkpt lat="44.353609085083008" lon="11.134278774261475">
        <ele>575.48630000000003</ele>
        <time>2005-11-05T09:32:48Z</time>
      </trkpt>
      <trkpt lat="44.353845119476318" lon="11.134085655212402">
        <ele>572.60249999999996</ele>
        <time>2005-11-05T09:32:51Z</time>
      </trkpt>
      <trkpt lat="44.354102611541748" lon="11.134042739868164">
        <ele>568.27639999999997</ele>
        <time>2005-11-05T09:32:56Z</time>
      </trkpt>
      <trkpt lat="44.354166984558105" lon="11.134042739868164">
        <ele>568.75710000000004</ele>
        <time>2005-11-05T09:32:58Z</time>
      </trkpt>
      <trkpt lat="44.354231357574463" lon="11.133527755737305">
        <ele>570.67970000000003</ele>
        <time>2005-11-05T09:33:11Z</time>
      </trkpt>
      <trkpt lat="44.354231357574463" lon="11.133484840393066">
        <ele>571.64089999999999</ele>
        <time>2005-11-05T09:33:12Z</time>
      </trkpt>
      <trkpt lat="44.354252815246582" lon="11.133120059967041">
        <ele>567.79570000000001</ele>
        <time>2005-11-05T09:33:17Z</time>
      </trkpt>
      <trkpt lat="44.354274272918701" lon="11.133055686950684">
        <ele>567.3152</ele>
        <time>2005-11-05T09:33:18Z</time>
      </trkpt>
      <trkpt lat="44.354317188262939" lon="11.132798194885254">
        <ele>562.98929999999996</ele>
        <time>2005-11-05T09:33:21Z</time>
      </trkpt>
      <trkpt lat="44.354467391967773" lon="11.132712364196777">
        <ele>558.66330000000005</ele>
        <time>2005-11-05T09:33:23Z</time>
      </trkpt>
      <trkpt lat="44.354853630065918" lon="11.132540702819824">
        <ele>551.93409999999994</ele>
        <time>2005-11-05T09:33:28Z</time>
      </trkpt>
      <trkpt lat="44.355438267812133" lon="11.132391924038529">
        <ele>551.93409999999994</ele>
      </trkpt>
      <trkpt lat="44.35552217066288" lon="11.131898900493979">
        <ele>551.93409999999994</ele>
      </trkpt>
      <trkpt lat="44.355750996619463" lon="11.131670912727714">
        <ele>551.93409999999994</ele>
      </trkpt>
      <trkpt lat="44.355918886139989" lon="11.131308563053608">
        <ele>551.93409999999994</ele>
      </trkpt>
      <trkpt lat="44.35633085668087" lon="11.131178895011544">
        <ele>551.93409999999994</ele>
      </trkpt>
      <trkpt lat="44.356712317094207" lon="11.131180739030242">
        <ele>551.93409999999994</ele>
      </trkpt>
      <trkpt lat="44.356827735900879" lon="11.130309104919434">
        <ele>535.11099999999999</ele>
        <time>2005-11-05T09:34:21Z</time>
      </trkpt>
      <trkpt lat="44.357128143310547" lon="11.129686832427979">
        <ele>539.43690000000004</ele>
        <time>2005-11-05T09:34:35Z</time>
      </trkpt>
      <trkpt lat="44.357213973999023" lon="11.129579544067383">
        <ele>540.39829999999995</ele>
        <time>2005-11-05T09:34:38Z</time>
      </trkpt>
      <trkpt lat="44.357471466064453" lon="11.129386425018311">
        <ele>542.80150000000003</ele>
        <time>2005-11-05T09:34:51Z</time>
      </trkpt>
      <trkpt lat="44.357514381408691" lon="11.129386425018311">
        <ele>542.80150000000003</ele>
        <time>2005-11-05T09:35:10Z</time>
      </trkpt>
      <trkpt lat="44.357686042785645" lon="11.129021644592285">
        <ele>545.68550000000005</ele>
        <time>2005-11-05T09:35:30Z</time>
      </trkpt>
      <trkpt lat="44.357836246490479" lon="11.128678321838379">
        <ele>549.04999999999995</ele>
        <time>2005-11-05T09:35:46Z</time>
      </trkpt>
      <trkpt lat="44.358007907867432" lon="11.128463745117188">
        <ele>551.93409999999994</ele>
        <time>2005-11-05T09:35:59Z</time>
      </trkpt>
      <trkpt lat="44.358201026916504" lon="11.128356456756592">
        <ele>554.81790000000001</ele>
        <time>2005-11-05T09:36:12Z</time>
      </trkpt>
      <trkpt lat="44.358415603637695" lon="11.128313541412354">
        <ele>556.25999999999999</ele>
        <time>2005-11-05T09:36:28Z</time>
      </trkpt>
      <trkpt lat="44.358522891998291" lon="11.128270626068115">
        <ele>558.18290000000002</ele>
        <time>2005-11-05T09:36:38Z</time>
      </trkpt>
      <trkpt lat="44.358565807342529" lon="11.128206253051758">
        <ele>558.18290000000002</ele>
        <time>2005-11-05T09:36:54Z</time>
      </trkpt>
      <trkpt lat="44.358630180358887" lon="11.128227710723877">
        <ele>559.62480000000005</ele>
        <time>2005-11-05T09:37:06Z</time>
      </trkpt>
      <trkpt lat="44.358823299407959" lon="11.1281418800354">
        <ele>562.02809999999999</ele>
        <time>2005-11-05T09:37:21Z</time>
      </trkpt>
      <trkpt lat="44.359016418457031" lon="11.1281418800354">
        <ele>564.91189999999995</ele>
        <time>2005-11-05T09:37:35Z</time>
      </trkpt>
      <trkpt lat="44.359080791473389" lon="11.1281418800354">
        <ele>566.35379999999998</ele>
        <time>2005-11-05T09:37:41Z</time>
      </trkpt>
      <trkpt lat="44.359123706817627" lon="11.1281418800354">
        <ele>567.3152</ele>
        <time>2005-11-05T09:37:45Z</time>
      </trkpt>
      <trkpt lat="44.359188079833984" lon="11.12816333770752">
        <ele>568.75710000000004</ele>
        <time>2005-11-05T09:37:49Z</time>
      </trkpt>
      <trkpt lat="44.359252452850342" lon="11.12816333770752">
        <ele>569.71849999999995</ele>
        <time>2005-11-05T09:37:55Z</time>
      </trkpt>
      <trkpt lat="44.35929536819458" lon="11.128184795379639">
        <ele>570.19899999999996</ele>
        <time>2005-11-05T09:38:00Z</time>
      </trkpt>
      <trkpt lat="44.359402656555176" lon="11.128206253051758">
        <ele>572.60249999999996</ele>
        <time>2005-11-05T09:38:09Z</time>
      </trkpt>
      <trkpt lat="44.359467029571533" lon="11.128206253051758">
        <ele>574.0444</ele>
        <time>2005-11-05T09:38:15Z</time>
      </trkpt>
      <trkpt lat="44.359617233276367" lon="11.128270626068115">
        <ele>576.44780000000003</ele>
        <time>2005-11-05T09:38:29Z</time>
      </trkpt>
      <trkpt lat="44.359681606292725" lon="11.128356456756592">
        <ele>578.37040000000002</ele>
        <time>2005-11-05T09:38:37Z</time>
      </trkpt>
      <trkpt lat="44.359681606292725" lon="11.128420829772949">
        <ele>578.85109999999997</ele>
        <time>2005-11-05T09:38:41Z</time>
      </trkpt>
      <trkpt lat="44.359703063964844" lon="11.128485202789307">
        <ele>579.33150000000001</ele>
        <time>2005-11-05T09:38:45Z</time>
      </trkpt>
      <trkpt lat="44.359660148620605" lon="11.128678321838379">
        <ele>580.29300000000001</ele>
        <time>2005-11-05T09:38:57Z</time>
      </trkpt>
      <trkpt lat="44.359617233276367" lon="11.128764152526855">
        <ele>582.21559999999999</ele>
        <time>2005-11-05T09:39:03Z</time>
      </trkpt>
      <trkpt lat="44.359617233276367" lon="11.128807067871094">
        <ele>583.17679999999996</ele>
        <time>2005-11-05T09:39:07Z</time>
      </trkpt>
      <trkpt lat="44.359617233276367" lon="11.128849983215332">
        <ele>583.65750000000003</ele>
        <time>2005-11-05T09:39:09Z</time>
      </trkpt>
      <trkpt lat="44.359638690948486" lon="11.128871440887451">
        <ele>583.65750000000003</ele>
        <time>2005-11-05T09:39:12Z</time>
      </trkpt>
      <trkpt lat="44.359617233276367" lon="11.128914356231689">
        <ele>585.09960000000001</ele>
        <time>2005-11-05T09:39:15Z</time>
      </trkpt>
      <trkpt lat="44.359638690948486" lon="11.128978729248047">
        <ele>586.54150000000004</ele>
        <time>2005-11-05T09:39:20Z</time>
      </trkpt>
      <trkpt lat="44.359745979309082" lon="11.129021644592285">
        <ele>588.46439999999996</ele>
        <time>2005-11-05T09:39:30Z</time>
      </trkpt>
      <trkpt lat="44.359874725341797" lon="11.128935813903809">
        <ele>591.34810000000004</ele>
        <time>2005-11-05T09:39:43Z</time>
      </trkpt>
      <trkpt lat="44.359917640686035" lon="11.12889289855957">
        <ele>591.82889999999998</ele>
        <time>2005-11-05T09:39:48Z</time>
      </trkpt>
      <trkpt lat="44.359982013702393" lon="11.128871440887451">
        <ele>593.27080000000001</ele>
        <time>2005-11-05T09:39:53Z</time>
      </trkpt>
      <trkpt lat="44.36004638671875" lon="11.128849983215332">
        <ele>594.23220000000003</ele>
        <time>2005-11-05T09:39:58Z</time>
      </trkpt>
      <trkpt lat="44.360218048095703" lon="11.128828525543213">
        <ele>597.11599999999999</ele>
        <time>2005-11-05T09:40:14Z</time>
      </trkpt>
      <trkpt lat="44.360282421112061" lon="11.128785610198975">
        <ele>598.55790000000002</ele>
        <time>2005-11-05T09:40:20Z</time>
      </trkpt>
      <trkpt lat="44.360368251800537" lon="11.128785610198975">
        <ele>599.03859999999997</ele>
        <time>2005-11-05T09:40:28Z</time>
      </trkpt>
      <trkpt lat="44.360454082489014" lon="11.128742694854736">
        <ele>600.48069999999996</ele>
        <time>2005-11-05T09:40:36Z</time>
      </trkpt>
      <trkpt lat="44.360496997833252" lon="11.128721237182617">
        <ele>601.92259999999999</ele>
        <time>2005-11-05T09:40:40Z</time>
      </trkpt>
      <trkpt lat="44.360561370849609" lon="11.128699779510498">
        <ele>601.92259999999999</ele>
        <time>2005-11-05T09:40:45Z</time>
      </trkpt>
      <trkpt lat="44.360582828521729" lon="11.128678321838379">
        <ele>602.88379999999995</ele>
        <time>2005-11-05T09:40:48Z</time>
      </trkpt>
      <trkpt lat="44.360604286193848" lon="11.12865686416626">
        <ele>603.36450000000002</ele>
        <time>2005-11-05T09:40:51Z</time>
      </trkpt>
      <trkpt lat="44.360668659210205" lon="11.128613948822021">
        <ele>603.84519999999998</ele>
        <time>2005-11-05T09:40:57Z</time>
      </trkpt>
      <trkpt lat="44.36079740524292" lon="11.128356456756592">
        <ele>605.28740000000005</ele>
        <time>2005-11-05T09:41:13Z</time>
      </trkpt>
      <trkpt lat="44.360861778259277" lon="11.128270626068115">
        <ele>606.24850000000004</ele>
        <time>2005-11-05T09:41:19Z</time>
      </trkpt>
      <trkpt lat="44.360883235931396" lon="11.128356456756592">
        <ele>607.21000000000004</ele>
        <time>2005-11-05T09:41:25Z</time>
      </trkpt>
      <trkpt lat="44.360733032226563" lon="11.128721237182617">
        <ele>607.69069999999999</ele>
        <time>2005-11-05T09:41:42Z</time>
      </trkpt>
      <trkpt lat="44.360432624816895" lon="11.128957271575928">
        <ele>607.69069999999999</ele>
        <time>2005-11-05T09:42:00Z</time>
      </trkpt>
      <trkpt lat="44.359917640686035" lon="11.129386425018311">
        <ele>609.13260000000002</ele>
        <time>2005-11-05T09:42:20Z</time>
      </trkpt>
      <trkpt lat="44.359703063964844" lon="11.130030155181885">
        <ele>610.09379999999999</ele>
        <time>2005-11-05T09:42:36Z</time>
      </trkpt>
      <trkpt lat="44.359488487243652" lon="11.130759716033936">
        <ele>612.49710000000005</ele>
        <time>2005-11-05T09:42:54Z</time>
      </trkpt>
      <trkpt lat="44.359595775604248" lon="11.131210327148438">
        <ele>614.90039999999999</ele>
        <time>2005-11-05T09:43:08Z</time>
      </trkpt>
      <trkpt lat="44.359853267669678" lon="11.131510734558105">
        <ele>616.82299999999998</ele>
        <time>2005-11-05T09:43:23Z</time>
      </trkpt>
      <trkpt lat="44.360067844390869" lon="11.131725311279297">
        <ele>619.22630000000004</ele>
        <time>2005-11-05T09:43:35Z</time>
      </trkpt>
      <trkpt lat="44.360346794128418" lon="11.132111549377441">
        <ele>622.11040000000003</ele>
        <time>2005-11-05T09:43:52Z</time>
      </trkpt>
      <trkpt lat="44.360260963439941" lon="11.132411956787109">
        <ele>625.47490000000005</ele>
        <time>2005-11-05T09:44:03Z</time>
      </trkpt>
      <trkpt lat="44.359960556030273" lon="11.132948398590088">
        <ele>627.87819999999999</ele>
        <time>2005-11-05T09:44:22Z</time>
      </trkpt>
      <trkpt lat="44.359681606292725" lon="11.1336350440979">
        <ele>631.72339999999997</ele>
        <time>2005-11-05T09:44:44Z</time>
      </trkpt>
      <trkpt lat="44.359681606292725" lon="11.134171485900879">
        <ele>634.60739999999998</ele>
        <time>2005-11-05T09:45:02Z</time>
      </trkpt>
      <trkpt lat="44.359810352325439" lon="11.134300231933594">
        <ele>637.01070000000004</ele>
        <time>2005-11-05T09:45:08Z</time>
      </trkpt>
      <trkpt lat="44.360067844390869" lon="11.134557723999023">
        <ele>639.41409999999996</ele>
        <time>2005-11-05T09:45:21Z</time>
      </trkpt>
      <trkpt lat="44.360196590423584" lon="11.134557723999023">
        <ele>640.85599999999999</ele>
        <time>2005-11-05T09:45:26Z</time>
      </trkpt>
      <trkpt lat="44.360454082489014" lon="11.134471893310547">
        <ele>644.22069999999997</ele>
        <time>2005-11-05T09:45:39Z</time>
      </trkpt>
      <trkpt lat="44.360690116882324" lon="11.134450435638428">
        <ele>647.58519999999999</ele>
        <time>2005-11-05T09:45:52Z</time>
      </trkpt>
      <trkpt lat="44.360904693603516" lon="11.134707927703857">
        <ele>649.50779999999997</ele>
        <time>2005-11-05T09:46:09Z</time>
      </trkpt>
      <trkpt lat="44.360990524291992" lon="11.134943962097168">
        <ele>652.39189999999996</ele>
        <time>2005-11-05T09:46:17Z</time>
      </trkpt>
      <trkpt lat="44.361162185668945" lon="11.135480403900146">
        <ele>655.27589999999998</ele>
        <time>2005-11-05T09:46:31Z</time>
      </trkpt>
      <trkpt lat="44.361269474029541" lon="11.135609149932861">
        <ele>657.19849999999997</ele>
        <time>2005-11-05T09:46:36Z</time>
      </trkpt>
      <trkpt lat="44.361848831176758" lon="11.135587692260742">
        <ele>659.12109999999996</ele>
        <time>2005-11-05T09:46:56Z</time>
      </trkpt>
      <trkpt lat="44.362320899963379" lon="11.135952472686768">
        <ele>659.60180000000003</ele>
        <time>2005-11-05T09:47:15Z</time>
      </trkpt>
      <trkpt lat="44.362471103668213" lon="11.136531829833984">
        <ele>659.12109999999996</ele>
        <time>2005-11-05T09:47:31Z</time>
      </trkpt>
      <trkpt lat="44.362556934356689" lon="11.13713264465332">
        <ele>658.6404</ele>
        <time>2005-11-05T09:47:47Z</time>
      </trkpt>
      <trkpt lat="44.362480156123638" lon="11.137434979900718">
        <ele>658.6404</ele>
      </trkpt>
      <trkpt lat="44.362295838072896" lon="11.137700518593192">
        <ele>661.04369999999994</ele>
        <time>2005-11-05T08:54:21Z</time>
      </trkpt>
      <trkpt lat="44.36220464296639" lon="11.137704625725746">
        <ele>662.00509999999997</ele>
        <time>2005-11-05T08:54:28Z</time>
      </trkpt>
      <trkpt lat="44.362124679610133" lon="11.137491725385189">
        <ele>665.36959999999999</ele>
        <time>2005-11-05T08:54:41Z</time>
      </trkpt>
      <trkpt lat="44.362070197239518" lon="11.137280836701393">
        <ele>667.29219999999998</ele>
        <time>2005-11-05T08:54:53Z</time>
      </trkpt>
      <trkpt lat="44.362087547779083" lon="11.137169608846307">
        <ele>668.25369999999998</ele>
        <time>2005-11-05T08:54:58Z</time>
      </trkpt>
      <trkpt lat="44.362056031823158" lon="11.13709157332778">
        <ele>668.73440000000005</ele>
        <time>2005-11-05T08:55:02Z</time>
      </trkpt>
      <trkpt lat="44.3619554489851" lon="11.136962408199906">
        <ele>670.65700000000004</ele>
        <time>2005-11-05T08:55:13Z</time>
      </trkpt>
      <trkpt lat="44.361875066533685" lon="11.136872554197907">
        <ele>673.06029999999998</ele>
        <time>2005-11-05T08:55:20Z</time>
      </trkpt>
      <trkpt lat="44.361865846440196" lon="11.136854365468025">
        <ele>673.54100000000005</ele>
        <time>2005-11-05T08:55:22Z</time>
      </trkpt>
      <trkpt lat="44.361718073487282" lon="11.136729223653674">
        <ele>676.4248</ele>
        <time>2005-11-05T08:55:36Z</time>
      </trkpt>
      <trkpt lat="44.361684042960405" lon="11.136697707697749">
        <ele>676.4248</ele>
        <time>2005-11-05T08:55:39Z</time>
      </trkpt>
      <trkpt lat="44.36154842376709" lon="11.136549264192581">
        <ele>680.26999999999998</ele>
        <time>2005-11-05T08:55:53Z</time>
      </trkpt>
      <trkpt lat="44.361525205895305" lon="11.136525962501764">
        <ele>680.26999999999998</ele>
        <time>2005-11-05T08:55:55Z</time>
      </trkpt>
      <trkpt lat="44.361512968316674" lon="11.13649494946003">
        <ele>680.26999999999998</ele>
        <time>2005-11-05T08:55:57Z</time>
      </trkpt>
      <trkpt lat="44.361342145130038" lon="11.136283976957202">
        <ele>681.71190000000001</ele>
        <time>2005-11-05T08:56:16Z</time>
      </trkpt>
      <trkpt lat="44.361081216484308" lon="11.13617249764502">
        <ele>683.15380000000005</ele>
        <time>2005-11-05T08:56:35Z</time>
      </trkpt>
      <trkpt lat="44.360799249261618" lon="11.136106783524156">
        <ele>686.03800000000001</ele>
        <time>2005-11-05T08:56:51Z</time>
      </trkpt>
      <trkpt lat="44.360597664490342" lon="11.136089432984591">
        <ele>688.44140000000004</ele>
        <time>2005-11-05T08:57:06Z</time>
      </trkpt>
      <trkpt lat="44.360425248742104" lon="11.136167049407959">
        <ele>690.84450000000004</ele>
        <time>2005-11-05T08:57:19Z</time>
      </trkpt>
      <trkpt lat="44.360357271507382" lon="11.136236032471061">
        <ele>691.80589999999995</ele>
        <time>2005-11-05T08:57:25Z</time>
      </trkpt>
      <trkpt lat="44.360164236277342" lon="11.13649008795619">
        <ele>693.72850000000005</ele>
        <time>2005-11-05T08:57:42Z</time>
      </trkpt>
      <trkpt lat="44.360124506056309" lon="11.136558065190911">
        <ele>694.20920000000001</ele>
        <time>2005-11-05T08:57:47Z</time>
      </trkpt>
      <trkpt lat="44.359958376735449" lon="11.136640459299088">
        <ele>697.57370000000003</ele>
        <time>2005-11-05T08:58:02Z</time>
      </trkpt>
      <trkpt lat="44.359801048412919" lon="11.136689661070704">
        <ele>699.01559999999995</ele>
        <time>2005-11-05T08:58:17Z</time>
      </trkpt>
      <trkpt lat="44.359516147524118" lon="11.136803654953837">
        <ele>700.01599999999996</ele>
      </trkpt>
      <trkpt lat="44.359473567456007" lon="11.136896777898073">
        <ele>704.78369999999995</ele>
        <time>2005-11-05T09:00:10Z</time>
      </trkpt>
      <trkpt lat="44.359287237748504" lon="11.137088807299733">
        <ele>704.78369999999995</ele>
      </trkpt>
      <trkpt lat="44.359035529196262" lon="11.136900885030627">
        <ele>704.78369999999995</ele>
      </trkpt>
      <trkpt lat="44.358848612755537" lon="11.137096434831619">
        <ele>704.78369999999995</ele>
      </trkpt>
      <trkpt lat="44.358634958043694" lon="11.137111689895391">
        <ele>704.78369999999995</ele>
      </trkpt>
      <trkpt lat="44.358577709645033" lon="11.137466412037611">
        <ele>704.78369999999995</ele>
      </trkpt>
      <trkpt lat="44.358451813459396" lon="11.137664811685681">
        <ele>704.78369999999995</ele>
      </trkpt>
      <trkpt lat="44.358329772949219" lon="11.13821885548532">
        <ele>700.78399999999999</ele>
      </trkpt>
      <trkpt lat="44.358131373301148" lon="11.138390516862273">
        <ele>700.78399999999999</ele>
      </trkpt>
      <trkpt lat="44.357944456860423" lon="11.138903656974435">
        <ele>685.78399999999999</ele>
      </trkpt>
      <trkpt lat="44.357742285355926" lon="11.139067690819502">
        <ele>685.78399999999999</ele>
      </trkpt>
      <trkpt lat="44.357719402760267" lon="11.139392824843526">
        <ele>680.78399999999999</ele>
      </trkpt>
      <trkpt lat="44.357654610648751" lon="11.139491060748696">
        <ele>680.78399999999999</ele>
      </trkpt>
      <trkpt lat="44.357711775228381" lon="11.13995935767889">
        <ele>675.78399999999999</ele>
      </trkpt>
      <trkpt lat="44.357513459399343" lon="11.14068984054029">
        <ele>675.78399999999999</ele>
      </trkpt>
      <trkpt lat="44.357273066416383" lon="11.140969293192029">
        <ele>675.78399999999999</ele>
      </trkpt>
      <trkpt lat="44.357345569878817" lon="11.141483271494508">
        <ele>675.78399999999999</ele>
      </trkpt>
      <trkpt lat="44.35721967369318" lon="11.141782756894827">
        <ele>675.78399999999999</ele>
      </trkpt>
      <trkpt lat="44.357006102800369" lon="11.142628658562899">
        <ele>680.78399999999999</ele>
      </trkpt>
      <trkpt lat="44.356794627383351" lon="11.143298707902431">
        <ele>685.55740000000003</ele>
        <time>2005-11-05T09:05:31Z</time>
      </trkpt>
      <trkpt lat="44.356593796983361" lon="11.143520073965192">
        <ele>688.44140000000004</ele>
        <time>2005-11-05T09:05:48Z</time>
      </trkpt>
      <trkpt lat="44.356348961591721" lon="11.143679665401578">
        <ele>690.36400000000003</ele>
        <time>2005-11-05T09:06:03Z</time>
      </trkpt>
      <trkpt lat="44.356212168931961" lon="11.143646137788892">
        <ele>690.36400000000003</ele>
        <time>2005-11-05T09:06:09Z</time>
      </trkpt>
      <trkpt lat="44.35599759221077" lon="11.143854847177863">
        <ele>691.80589999999995</ele>
        <time>2005-11-05T09:06:22Z</time>
      </trkpt>
      <trkpt lat="44.355782847851515" lon="11.144001865759492">
        <ele>693.72850000000005</ele>
        <time>2005-11-05T09:06:37Z</time>
      </trkpt>
      <trkpt lat="44.355595344677567" lon="11.144179059192538">
        <ele>693.72850000000005</ele>
        <time>2005-11-05T09:06:50Z</time>
      </trkpt>
      <trkpt lat="44.355404740199447" lon="11.144326748326421">
        <ele>694.20920000000001</ele>
        <time>2005-11-05T09:07:05Z</time>
      </trkpt>
      <trkpt lat="44.355387389659882" lon="11.144351474940777">
        <ele>695.65120000000002</ele>
        <time>2005-11-05T09:07:07Z</time>
      </trkpt>
      <trkpt lat="44.355293260887265" lon="11.144475024193525">
        <ele>695.65120000000002</ele>
      </trkpt>
      <trkpt lat="44.35508731752634" lon="11.144488351419568">
        <ele>695.65120000000002</ele>
      </trkpt>
      <trkpt lat="44.355066027492285" lon="11.144534032791853">
        <ele>685.79999999999995</ele>
        <time>2005-11-05T16:15:29Z</time>
      </trkpt>
      <trkpt lat="44.354700995609164" lon="11.145225958898664">
        <ele>671.77919999999995</ele>
        <time>2005-11-05T16:15:29Z</time>
      </trkpt>
      <trkpt lat="44.354544002562761" lon="11.145368032157421">
        <ele>666.59760000000006</ele>
        <time>2005-11-05T16:15:29Z</time>
      </trkpt>
      <trkpt lat="44.354418022558093" lon="11.145372977480292">
        <ele>659.89200000000005</ele>
        <time>2005-11-05T16:15:29Z</time>
      </trkpt>
      <trkpt lat="44.354295982047915" lon="11.145485965535045">
        <ele>654.10080000000005</ele>
        <time>2005-11-05T16:15:29Z</time>
      </trkpt>
      <trkpt lat="44.354311991482973" lon="11.144653977826238">
        <ele>653.49120000000005</ele>
        <time>2005-11-05T16:15:29Z</time>
      </trkpt>
      <trkpt lat="44.354365970939398" lon="11.144391037523746">
        <ele>658.67280000000005</ele>
        <time>2005-11-05T16:15:29Z</time>
      </trkpt>
      <trkpt lat="44.354109987616539" lon="11.143793994560838">
        <ele>661.11120000000005</ele>
        <time>2005-11-05T16:15:29Z</time>
      </trkpt>
      <trkpt lat="44.354077968746424" lon="11.143606994301081">
        <ele>666.59760000000006</ele>
        <time>2005-11-05T16:15:29Z</time>
      </trkpt>
      <trkpt lat="44.354137983173132" lon="11.14343298599124">
        <ele>673.91279999999995</ele>
        <time>2005-11-05T16:15:29Z</time>
      </trkpt>
      <trkpt lat="44.353718971833587" lon="11.143251014873385">
        <ele>676.04639999999995</ele>
        <time>2005-11-05T16:15:29Z</time>
      </trkpt>
      <trkpt lat="44.353602714836597" lon="11.142993774265051">
        <ele>685.49519999999995</ele>
        <time>2005-11-05T16:15:29Z</time>
      </trkpt>
      <trkpt lat="44.353440692648292" lon="11.142997713759542">
        <ele>685.49519999999995</ele>
        <time>2005-11-05T16:15:29Z</time>
      </trkpt>
      <trkpt lat="44.353196695446968" lon="11.143125705420971">
        <ele>680.61839999999995</ele>
        <time>2005-11-05T16:15:29Z</time>
      </trkpt>
      <trkpt lat="44.353034673258662" lon="11.143039707094431">
        <ele>684.88559999999995</ele>
        <time>2005-11-05T16:15:29Z</time>
      </trkpt>
      <trkpt lat="44.352925708517432" lon="11.143051693215966">
        <ele>684.27599999999995</ele>
        <time>2005-11-05T16:15:29Z</time>
      </trkpt>
      <trkpt lat="44.352842727676034" lon="11.143148755654693">
        <ele>679.70399999999995</ele>
        <time>2005-11-05T16:15:29Z</time>
      </trkpt>
      <trkpt lat="44.352725716307759" lon="11.1431207600981">
        <ele>680.00879999999995</ele>
        <time>2005-11-05T16:15:29Z</time>
      </trkpt>
      <trkpt lat="44.352505691349506" lon="11.142916744574904">
        <ele>685.49519999999995</ele>
        <time>2005-11-05T16:15:29Z</time>
      </trkpt>
      <trkpt lat="44.352331683039665" lon="11.14273770712316">
        <ele>688.84799999999996</ele>
        <time>2005-11-05T16:15:29Z</time>
      </trkpt>
      <trkpt lat="44.352114675566554" lon="11.142945745959878">
        <ele>680.31359999999995</ele>
        <time>2005-11-05T16:15:29Z</time>
      </trkpt>
      <trkpt lat="44.351960700005293" lon="11.143048759549856">
        <ele>674.52239999999995</ele>
        <time>2005-11-05T16:15:29Z</time>
      </trkpt>
      <trkpt lat="44.351739669218659" lon="11.143048759549856">
        <ele>670.86479999999995</ele>
        <time>2005-11-05T16:15:29Z</time>
      </trkpt>
      <trkpt lat="44.351594662293792" lon="11.142838709056377">
        <ele>673.91279999999995</ele>
        <time>2005-11-05T16:15:29Z</time>
      </trkpt>
      <trkpt lat="44.351438675075769" lon="11.142297741025686">
        <ele>682.75199999999995</ele>
        <time>2005-11-05T16:15:29Z</time>
      </trkpt>
      <trkpt lat="44.351306743919849" lon="11.142128761857748">
        <ele>683.36159999999995</ele>
        <time>2005-11-05T16:15:29Z</time>
      </trkpt>
      <trkpt lat="44.351194677874446" lon="11.141660716384649">
        <ele>688.54319999999996</ele>
        <time>2005-11-05T16:15:29Z</time>
      </trkpt>
      <trkpt lat="44.351047743111849" lon="11.141414707526565">
        <ele>687.01919999999996</ele>
        <time>2005-11-05T16:15:29Z</time>
      </trkpt>
      <trkpt lat="44.350851690396667" lon="11.141455695033073">
        <ele>679.70399999999995</ele>
        <time>2005-11-05T16:15:29Z</time>
      </trkpt>
      <trkpt lat="44.350497722625732" lon="11.141660213470459">
        <ele>688.9221</ele>
        <time>2005-11-05T10:14:30Z</time>
      </trkpt>
      <trkpt lat="44.350197315216064" lon="11.14213228225708">
        <ele>687.48000000000002</ele>
        <time>2005-11-05T10:14:50Z</time>
      </trkpt>
      <trkpt lat="44.349682331085205" lon="11.14262580871582">
        <ele>677.86670000000004</ele>
        <time>2005-11-05T10:18:08Z</time>
      </trkpt>
      <trkpt lat="44.349575042724609" lon="11.142668724060059">
        <ele>674.50229999999999</ele>
        <time>2005-11-05T10:18:11Z</time>
      </trkpt>
      <trkpt lat="44.349532127380371" lon="11.142711639404297">
        <ele>673.54100000000005</ele>
        <time>2005-11-05T10:18:13Z</time>
      </trkpt>
      <trkpt lat="44.349467754364014" lon="11.142754554748535">
        <ele>670.17629999999997</ele>
        <time>2005-11-05T10:18:16Z</time>
      </trkpt>
      <trkpt lat="44.349446296691895" lon="11.142776012420654">
        <ele>670.17629999999997</ele>
        <time>2005-11-05T10:18:17Z</time>
      </trkpt>
      <trkpt lat="44.349381923675537" lon="11.142840385437012">
        <ele>666.81150000000002</ele>
        <time>2005-11-05T10:18:20Z</time>
      </trkpt>
      <trkpt lat="44.349381923675537" lon="11.142861843109131">
        <ele>666.33079999999995</ele>
        <time>2005-11-05T10:18:21Z</time>
      </trkpt>
      <trkpt lat="44.349296092987061" lon="11.142926216125488">
        <ele>663.92750000000001</ele>
        <time>2005-11-05T10:18:24Z</time>
      </trkpt>
      <trkpt lat="44.349253177642822" lon="11.142926216125488">
        <ele>662.00509999999997</ele>
        <time>2005-11-05T10:18:26Z</time>
      </trkpt>
      <trkpt lat="44.349167346954346" lon="11.142947673797607">
        <ele>659.12109999999996</ele>
        <time>2005-11-05T10:18:29Z</time>
      </trkpt>
      <trkpt lat="44.349102973937988" lon="11.142990589141846">
        <ele>657.67920000000004</ele>
        <time>2005-11-05T10:18:31Z</time>
      </trkpt>
      <trkpt lat="44.348974227905273" lon="11.143033504486084">
        <ele>654.79520000000002</ele>
        <time>2005-11-05T10:18:37Z</time>
      </trkpt>
      <trkpt lat="44.34880256652832" lon="11.143119335174561">
        <ele>649.50779999999997</ele>
        <time>2005-11-05T10:18:42Z</time>
      </trkpt>
      <trkpt lat="44.348695278167725" lon="11.143119335174561">
        <ele>647.10450000000003</ele>
        <time>2005-11-05T10:18:46Z</time>
      </trkpt>
      <trkpt lat="44.348609447479248" lon="11.143076419830322">
        <ele>644.22069999999997</ele>
        <time>2005-11-05T10:18:49Z</time>
      </trkpt>
      <trkpt lat="44.348523616790771" lon="11.143033504486084">
        <ele>640.85599999999999</ele>
        <time>2005-11-05T10:18:52Z</time>
      </trkpt>
      <trkpt lat="44.348502159118652" lon="11.143012046813965">
        <ele>640.85599999999999</ele>
        <time>2005-11-05T10:18:53Z</time>
      </trkpt>
      <trkpt lat="44.348373413085938" lon="11.142969131469727">
        <ele>637.49149999999997</ele>
        <time>2005-11-05T10:18:57Z</time>
      </trkpt>
      <trkpt lat="44.348149700090289" lon="11.142923450097442">
        <ele>627.39769999999999</ele>
        <time>2005-11-05T10:19:14Z</time>
      </trkpt>
      <trkpt lat="44.348094882443547" lon="11.142985979095101">
        <ele>624.99440000000004</ele>
        <time>2005-11-05T10:19:17Z</time>
      </trkpt>
      <trkpt lat="44.347896063700318" lon="11.1428461689502">
        <ele>619.70699999999999</ele>
        <time>2005-11-05T10:19:24Z</time>
      </trkpt>
      <trkpt lat="44.347829846665263" lon="11.142748855054379">
        <ele>616.82299999999998</ele>
        <time>2005-11-05T10:19:28Z</time>
      </trkpt>
      <trkpt lat="44.34768701903522" lon="11.142568392679095">
        <ele>610.09379999999999</ele>
        <time>2005-11-05T10:19:34Z</time>
      </trkpt>
      <trkpt lat="44.347599847242236" lon="11.142563950270414">
        <ele>606.72919999999999</ele>
        <time>2005-11-05T10:19:38Z</time>
      </trkpt>
      <trkpt lat="44.347488032653928" lon="11.142569482326508">
        <ele>602.40309999999999</ele>
        <time>2005-11-05T10:19:45Z</time>
      </trkpt>
      <trkpt lat="44.347400860860944" lon="11.142555316910148">
        <ele>599.03859999999997</ele>
        <time>2005-11-05T10:19:50Z</time>
      </trkpt>
      <trkpt lat="44.347312012687325" lon="11.14254173822701">
        <ele>595.67409999999995</ele>
        <time>2005-11-05T10:19:54Z</time>
      </trkpt>
      <trkpt lat="44.347229870036244" lon="11.142507791519165">
        <ele>593.75149999999996</ele>
        <time>2005-11-05T10:19:58Z</time>
      </trkpt>
      <trkpt lat="44.34717983007431" lon="11.142484154552221">
        <ele>589.90629999999999</ele>
        <time>2005-11-05T10:20:00Z</time>
      </trkpt>
      <trkpt lat="44.347068602219224" lon="11.142382062971592">
        <ele>586.54150000000004</ele>
        <time>2005-11-05T10:20:04Z</time>
      </trkpt>
      <trkpt lat="44.346965085715055" lon="11.142199253663421">
        <ele>584.61890000000005</ele>
        <time>2005-11-05T10:20:09Z</time>
      </trkpt>
      <trkpt lat="44.347230037674308" lon="11.141572035849094">
        <ele>541.32479999999998</ele>
        <time>2005-11-05T16:16:52Z</time>
      </trkpt>
      <trkpt lat="44.347560033202171" lon="11.14100600592792">
        <ele>553.51679999999999</ele>
        <time>2005-11-05T16:16:52Z</time>
      </trkpt>
      <trkpt lat="44.347722977399826" lon="11.140863010659814">
        <ele>562.35599999999999</ele>
        <time>2005-11-05T16:16:52Z</time>
      </trkpt>
      <trkpt lat="44.347618035972118" lon="11.140742981806397">
        <ele>561.44159999999999</ele>
        <time>2005-11-05T16:16:52Z</time>
      </trkpt>
      <trkpt lat="44.34708796441555" lon="11.140710962936282">
        <ele>543.76319999999998</ele>
        <time>2005-11-05T16:16:52Z</time>
      </trkpt>
      <trkpt lat="44.346736008301377" lon="11.140639968216419">
        <ele>531.87599999999998</ele>
        <time>2005-11-05T16:16:52Z</time>
      </trkpt>
      <trkpt lat="44.346473990008235" lon="11.140713980421424">
        <ele>520.90319999999997</ele>
        <time>2005-11-05T16:16:52Z</time>
      </trkpt>
      <trkpt lat="44.346123039722443" lon="11.140843983739614">
        <ele>503.83440000000002</ele>
        <time>2005-11-05T16:16:52Z</time>
      </trkpt>
      <trkpt lat="44.345683995634317" lon="11.141216978430748">
        <ele>474.2688</ele>
        <time>2005-11-05T16:16:52Z</time>
      </trkpt>
      <trkpt lat="44.345443015918136" lon="11.140910033136606">
        <ele>460.24799999999999</ele>
        <time>2005-11-05T16:16:52Z</time>
      </trkpt>
      <trkpt lat="44.345433712005615" lon="11.140780448913574">
        <ele>455.73599999999999</ele>
        <time>2005-11-05T10:27:08Z</time>
      </trkpt>
      <trkpt lat="44.345347881317139" lon="11.140716075897217">
        <ele>450.37099999999998</ele>
        <time>2005-11-05T10:27:11Z</time>
      </trkpt>
      <trkpt lat="44.345081336796284" lon="11.140443831682205">
        <ele>440.37099999999998</ele>
      </trkpt>
      <trkpt lat="44.345050826668739" lon="11.140240654349327">
        <ele>440.37099999999998</ele>
      </trkpt>
      <trkpt lat="44.345001960173249" lon="11.140375016257167">
        <ele>433.42559999999997</ele>
        <time>2005-11-05T16:18:04Z</time>
      </trkpt>
      <trkpt lat="44.34500003233552" lon="11.140711968764663">
        <ele>434.33999999999997</ele>
        <time>2005-11-05T16:18:04Z</time>
      </trkpt>
      <trkpt lat="44.345075972378254" lon="11.141116982325912">
        <ele>439.21679999999998</ele>
        <time>2005-11-05T16:18:04Z</time>
      </trkpt>
      <trkpt lat="44.344982011243701" lon="11.141917034983635">
        <ele>431.59679999999997</ele>
        <time>2005-11-05T16:18:04Z</time>
      </trkpt>
      <trkpt lat="44.344697026535869" lon="11.142729995772243">
        <ele>416.05200000000002</ele>
        <time>2005-11-05T16:18:04Z</time>
      </trkpt>
      <trkpt lat="44.344707001000643" lon="11.142930993810296">
        <ele>416.05200000000002</ele>
        <time>2005-11-05T16:18:04Z</time>
      </trkpt>
      <trkpt lat="44.344424027949572" lon="11.14289503544569">
        <ele>405.99360000000001</ele>
        <time>2005-11-05T16:18:04Z</time>
      </trkpt>
      <trkpt lat="44.344410030171275" lon="11.142648020759225">
        <ele>405.68880000000001</ele>
        <time>2005-11-05T16:18:04Z</time>
      </trkpt>
      <trkpt lat="44.344455963000655" lon="11.142216017469764">
        <ele>407.51760000000002</ele>
        <time>2005-11-05T16:18:04Z</time>
      </trkpt>
      <trkpt lat="44.344515977427363" lon="11.141731962561607">
        <ele>409.95600000000002</ele>
        <time>2005-11-05T16:18:04Z</time>
      </trkpt>
      <trkpt lat="44.344350015744567" lon="11.142374016344547">
        <ele>403.86000000000001</ele>
        <time>2005-11-05T16:18:04Z</time>
      </trkpt>
      <trkpt lat="44.34403502382338" lon="11.142556993290782">
        <ele>393.49680000000001</ele>
        <time>2005-11-05T16:18:04Z</time>
      </trkpt>
      <trkpt lat="44.343425994738936" lon="11.142579959705472">
        <ele>377.0376</ele>
        <time>2005-11-05T16:18:04Z</time>
      </trkpt>
      <trkpt lat="44.342254037037492" lon="11.142322970554233">
        <ele>351.73919999999998</ele>
        <time>2005-11-05T16:18:04Z</time>
      </trkpt>
      <trkpt lat="44.341764030978084" lon="11.14214401692152">
        <ele>338.32799999999997</ele>
        <time>2005-11-05T16:18:04Z</time>
      </trkpt>
      <trkpt lat="44.341655988246202" lon="11.142185004428029">
        <ele>335.88959999999997</ele>
        <time>2005-11-05T16:18:04Z</time>
      </trkpt>
      <trkpt lat="44.341579964384437" lon="11.143038030713797">
        <ele>339.24239999999998</ele>
        <time>2005-11-05T16:18:04Z</time>
      </trkpt>
      <trkpt lat="44.341632854193449" lon="11.143265683203936">
        <ele>339.24239999999998</ele>
      </trkpt>
      <trkpt lat="44.341468820348382" lon="11.142836529761553">
        <ele>339.24239999999998</ele>
      </trkpt>
      <trkpt lat="44.341401094570756" lon="11.142512401565909">
        <ele>339.48270000000002</ele>
        <time>2005-11-05T07:56:20Z</time>
      </trkpt>
      <trkpt lat="44.341250723227859" lon="11.142286760732532">
        <ele>337.0795</ele>
        <time>2005-11-05T07:56:05Z</time>
      </trkpt>
      <trkpt lat="44.341071853414178" lon="11.142125157639384">
        <ele>333.71480000000003</ele>
        <time>2005-11-05T07:55:49Z</time>
      </trkpt>
      <trkpt lat="44.34093707241118" lon="11.141992555931211">
        <ele>331.7921</ele>
        <time>2005-11-05T07:55:37Z</time>
      </trkpt>
      <trkpt lat="44.34080371633172" lon="11.141858445480466">
        <ele>328.9083</ele>
        <time>2005-11-05T07:55:25Z</time>
      </trkpt>
      <trkpt lat="44.340692153200507" lon="11.141685862094164">
        <ele>327.9468</ele>
        <time>2005-11-05T07:55:12Z</time>
      </trkpt>
      <trkpt lat="44.340737080201507" lon="11.141406241804361">
        <ele>324.58229999999998</ele>
        <time>2005-11-05T07:54:57Z</time>
      </trkpt>
      <trkpt lat="44.340741941705346" lon="11.141313118860126">
        <ele>323.1404</ele>
        <time>2005-11-05T07:54:52Z</time>
      </trkpt>
      <trkpt lat="44.340731464326382" lon="11.140948422253132">
        <ele>320.7371</ele>
        <time>2005-11-05T07:54:32Z</time>
      </trkpt>
      <trkpt lat="44.340748898684978" lon="11.140814982354641">
        <ele>317.37240000000003</ele>
        <time>2005-11-05T07:54:23Z</time>
      </trkpt>
      <trkpt lat="44.340848810970783" lon="11.140502756461501">
        <ele>311.12380000000002</ele>
        <time>2005-11-05T07:54:02Z</time>
      </trkpt>
      <trkpt lat="44.340890888124704" lon="11.140210395678878">
        <ele>308.72050000000002</ele>
        <time>2005-11-05T07:53:49Z</time>
      </trkpt>
      <trkpt lat="44.340930283069611" lon="11.13984209485352">
        <ele>307.7593</ele>
        <time>2005-11-05T07:53:35Z</time>
      </trkpt>
      <trkpt lat="44.340993314981461" lon="11.139467172324657">
        <ele>306.31729999999999</ele>
        <time>2005-11-05T07:53:20Z</time>
      </trkpt>
      <trkpt lat="44.341087527573109" lon="11.139000719413161">
        <ele>304.87520000000001</ele>
        <time>2005-11-05T07:53:04Z</time>
      </trkpt>
      <trkpt lat="44.341172017157078" lon="11.138595705851912">
        <ele>302.95249999999999</ele>
        <time>2005-11-05T07:52:49Z</time>
      </trkpt>
      <trkpt lat="44.341236054897308" lon="11.138189937919378">
        <ele>299.10730000000001</ele>
        <time>2005-11-05T07:52:34Z</time>
      </trkpt>
      <trkpt lat="44.341102028265595" lon="11.137619633227587">
        <ele>298.14609999999999</ele>
        <time>2005-11-05T07:52:19Z</time>
      </trkpt>
      <trkpt lat="44.341044863685966" lon="11.137527180835605">
        <ele>299.10730000000001</ele>
        <time>2005-11-05T07:52:15Z</time>
      </trkpt>
      <trkpt lat="44.340995326638222" lon="11.137530030682683">
        <ele>298.14609999999999</ele>
        <time>2005-11-05T07:52:11Z</time>
      </trkpt>
      <trkpt lat="44.340308429673314" lon="11.137784337624907">
        <ele>300.06869999999998</ele>
        <time>2005-11-05T07:51:58Z</time>
      </trkpt>
      <trkpt lat="44.340142970904708" lon="11.137919202446938">
        <ele>301.0299</ele>
        <time>2005-11-05T07:51:55Z</time>
      </trkpt>
      <trkpt lat="44.339501084759831" lon="11.138434857130051">
        <ele>301.51060000000001</ele>
        <time>2005-11-05T07:51:42Z</time>
      </trkpt>
      <trkpt lat="44.339331351220608" lon="11.138664605095983">
        <ele>303.4332</ele>
        <time>2005-11-05T07:51:38Z</time>
      </trkpt>
      <trkpt lat="44.339143596589565" lon="11.139272041618824">
        <ele>306.79790000000003</ele>
        <time>2005-11-05T07:51:29Z</time>
      </trkpt>
      <trkpt lat="44.339016526937485" lon="11.139653753489256">
        <ele>304.87520000000001</ele>
        <time>2005-11-05T07:51:18Z</time>
      </trkpt>
      <trkpt lat="44.339016610756516" lon="11.140188686549664">
        <ele>302.95249999999999</ele>
        <time>2005-11-05T07:51:03Z</time>
      </trkpt>
      <trkpt lat="44.339164886623621" lon="11.14073334261775">
        <ele>300.54930000000002</ele>
        <time>2005-11-05T07:50:45Z</time>
      </trkpt>
      <trkpt lat="44.339351132512093" lon="11.141225947067142">
        <ele>298.14609999999999</ele>
        <time>2005-11-05T07:50:28Z</time>
      </trkpt>
      <trkpt lat="44.339468311518431" lon="11.141763562336564">
        <ele>295.262</ele>
        <time>2005-11-05T07:50:11Z</time>
      </trkpt>
      <trkpt lat="44.339469065889716" lon="11.142230434343219">
        <ele>292.85879999999997</ele>
        <time>2005-11-05T07:49:56Z</time>
      </trkpt>
      <trkpt lat="44.339419528841972" lon="11.142800487577915">
        <ele>290.93619999999999</ele>
        <time>2005-11-05T07:49:38Z</time>
      </trkpt>
      <trkpt lat="44.339271672070026" lon="11.14321899600327">
        <ele>287.57139999999998</ele>
        <time>2005-11-05T07:49:24Z</time>
      </trkpt>
      <trkpt lat="44.33908031322062" lon="11.143659213557839">
        <ele>284.68759999999997</ele>
        <time>2005-11-05T07:49:08Z</time>
      </trkpt>
      <trkpt lat="44.338899767026305" lon="11.144106304273009">
        <ele>281.80360000000002</ele>
        <time>2005-11-05T07:48:52Z</time>
      </trkpt>
      <trkpt lat="44.338717209175229" lon="11.144492290914059">
        <ele>279.40030000000002</ele>
        <time>2005-11-05T07:48:38Z</time>
      </trkpt>
      <trkpt lat="44.338467009365559" lon="11.144701838493347">
        <ele>277.95830000000001</ele>
        <time>2005-11-05T07:48:26Z</time>
      </trkpt>
      <trkpt lat="44.33811723254621" lon="11.145015824586153">
        <ele>274.59379999999999</ele>
        <time>2005-11-05T07:48:10Z</time>
      </trkpt>
      <trkpt lat="44.337982954457402" lon="11.145538352429867">
        <ele>273.15190000000001</ele>
        <time>2005-11-05T07:47:56Z</time>
      </trkpt>
      <trkpt lat="44.337897123768926" lon="11.146182334050536">
        <ele>272.67110000000002</ele>
        <time>2005-11-05T07:47:42Z</time>
      </trkpt>
      <trkpt lat="44.337518010288477" lon="11.147006275132298">
        <ele>271.22910000000002</ele>
        <time>2005-11-05T07:47:11Z</time>
      </trkpt>
      <trkpt lat="44.337374847382307" lon="11.147549254819751">
        <ele>271.7097</ele>
        <time>2005-11-05T07:46:57Z</time>
      </trkpt>
      <trkpt lat="44.337322125211358" lon="11.148121654987335">
        <ele>270.7484</ele>
        <time>2005-11-05T07:46:43Z</time>
      </trkpt>
      <trkpt lat="44.337431844323874" lon="11.148519711568952">
        <ele>269.78710000000001</ele>
        <time>2005-11-05T07:46:33Z</time>
      </trkpt>
      <trkpt lat="44.337588669732213" lon="11.148968646302819">
        <ele>267.86450000000002</ele>
        <time>2005-11-05T07:46:22Z</time>
      </trkpt>
      <trkpt lat="44.337672153487802" lon="11.149634420871735">
        <ele>267.38389999999998</ele>
        <time>2005-11-05T07:46:10Z</time>
      </trkpt>
    </trkseg>
  </trk>

</gpx>
